Flight Track Log - Related Links

Times and Time Zones

All times are in EDT time to prevent confusion due to time zone crossing. See the DAL268 flight status page for this flight to view local times or setup timezone preferences in your user account.

Time Position Orientation Groundspeed Altitude Reporting Facility
EDT Latitude Longitude Course Direction KTS MPH feet Rate Location/Type
Sun 11:52:11 PM 40.6370 -73.7800 261° West  Level FlightAware ADS-B
Mon 12:09:00 AM 40.8081 -73.6086 37° Northeast  Level FlightAware Approximate
Mon 12:11:00 AM 40.8007 -73.6160 37° Northeast  Level FlightAware Approximate
Mon 12:12:00 AM 40.9152 -73.5182 37° Northeast  Level FlightAware Approximate
Mon 12:13:00 AM 41.0268 -73.4200 30° Northeast  Level FlightAware Approximate
Mon 12:14:00 AM 41.1495 -73.3336 21° North  Level FlightAware Approximate
Mon 12:24:57 AM 40.6260 -73.7820 210° Southwest 175 201  Level FlightAware ADS-B
Mon 12:25:17 AM 40.6130 -73.7930 213° Southwest 169 194 800 2,100 Climbing FlightAware ADS-B
Mon 12:25:37 AM 40.6000 -73.8050 215° Southwest 173 199 1,400 1,500 Climbing FlightAware ADS-B
Mon 12:25:45 AM 40.5940 -73.8080 201° Southwest 184 212 1,500 857 Climbing FlightAware ADS-B
Mon 12:25:51 AM 40.5880 -73.8090 187° South 195 224 1,600 429 Climbing FlightAware ADS-B
Mon 12:26:13 AM 40.5680 -73.8000 161° South 231 266 1,700 600 Climbing FlightAware ADS-B
Mon 12:26:21 AM 40.5610 -73.7910 136° Southeast 239 275 1,900 1,125 Climbing FlightAware ADS-B
Mon 12:26:29 AM 40.5570 -73.7820 120° Southeast 247 284 2,000 750 Climbing FlightAware ADS-B
Mon 12:26:37 AM 40.5530 -73.7690 112° Southeast 257 296 2,100 1,000 Climbing FlightAware ADS-B
Mon 12:26:47 AM 40.5510 -73.7530 99° East 269 310 2,300 1,313 Climbing FlightAware ADS-B
Mon 12:27:09 AM 40.5600 -73.7190 71° East 285 328 2,800 1,400 Climbing FlightAware ADS-B
Mon 12:27:17 AM 40.5650 -73.7070 61° Northeast 289 333 3,000 2,000 Climbing FlightAware ADS-B
Mon 12:27:30 AM 40.5783 -73.6877 48° Northeast 296 341 3,500 2,125 Climbing FlightAware ADS-B
Mon 12:28:05 AM 40.6167 -73.6455 40° Northeast 297 342 4,700 2,138 Climbing FlightAware ADS-B
Mon 12:28:57 AM 40.6740 -73.5850 39° Northeast 317 365 6,600 2,333 Climbing FlightAware ADS-B
Mon 12:29:17 AM 40.6970 -73.5580 42° Northeast 318 366 7,500 2,100 Climbing FlightAware ADS-B
Mon 12:29:37 AM 40.7190 -73.5340 40° Northeast 326 375 8,000 1,950 Climbing FlightAware ADS-B
Mon 12:29:57 AM 40.7420 -73.5060 43° Northeast 331 381 8,800 2,647 Climbing FlightAware ADS-B
Mon 12:30:11 AM 40.7580 -73.4870 42° Northeast 324 373 9,500 1,833 Climbing FlightAware ADS-B
Mon 12:30:33 AM 40.7860 -73.4620 34° Northeast 336 387 9,900 1,448 Climbing FlightAware ADS-B
Mon 12:31:09 AM 40.8380 -73.4300 25° Northeast 347 399 10,900 1,629 Climbing FlightAware ADS-B
Mon 12:31:43 AM 40.8900 -73.4020 22° Northeast 365 420 11,800 1,164 Climbing FlightAware ADS-B
Mon 12:32:16 AM 40.9410 -73.3740 23° Northeast 392 451 12,200 870 Climbing FlightAware ADS-B
Mon 12:32:52 AM 41.0080 -73.3390 22° Northeast 423 487 12,800 1,690 Climbing FlightAware ADS-B
Mon 12:33:27 AM 41.0700 -73.3070 21° North 427 491 14,200 2,301 Climbing FlightAware ADS-B
Mon 12:34:05 AM 41.1350 -73.2530 32° Northeast 442 509 15,600 1,971 Climbing FlightAware ADS-B
Mon 12:34:37 AM 41.1800 -73.1870 48° Northeast 460 529 16,500 2,029 Climbing FlightAware ADS-B
Mon 12:35:13 AM 41.2250 -73.1060 54° Northeast 459 528 17,900 1,971 Climbing FlightAware ADS-B
Mon 12:35:47 AM 41.2700 -73.0260 53° Northeast 472 543 18,800 1,543 Climbing FlightAware ADS-B
Mon 12:36:23 AM 41.3200 -72.9430 51° Northeast 480 552 19,700 1,667 Climbing FlightAware ADS-B
Mon 12:36:59 AM 41.3720 -72.8610 50° Northeast 485 558 20,800 1,676 Climbing FlightAware ADS-B
Mon 12:37:31 AM 41.4180 -72.7900 49° Northeast 491 565 21,600 1,548 Climbing FlightAware ADS-B
Mon 12:38:01 AM 41.4630 -72.7170 51° Northeast 497 572 22,400 892 Climbing FlightAware ADS-B
Mon 12:38:45 AM 41.5200 -72.6280 49° Northeast 499 574 22,700 857 Climbing FlightAware ADS-B
Mon 12:39:25 AM 41.5800 -72.5310 50° Northeast 506 582 23,600 1,944 Climbing FlightAware ADS-B
Mon 12:39:56 AM 41.6340 -72.4420 51° Northeast 516 594 25,000 1,151 Climbing FlightAware ADS-B
Mon 12:40:38 AM 41.6880 -72.3550 50° Northeast 517 595 25,000  Level FlightAware ADS-B
Mon 12:41:14 AM 41.7350 -72.2800 50° Northeast 517 595 25,000 1,366 Level FlightAware ADS-B
Mon 12:41:28 AM 41.6420 -72.4300 230° Southwest 26,700 1,931 Climbing FlightAware ADS-B
Mon 12:42:04 AM 41.7820 -72.2020 50° Northeast 27,300 904 Climbing FlightAware ADS-B
Mon 12:42:41 AM 41.8730 -72.0520 51° Northeast 543 625 27,800 1,091 Climbing FlightAware ADS-B
Mon 12:43:21 AM 41.9560 -71.9160 51° Northeast 545 627 28,700 1,268 Climbing FlightAware ADS-B
Mon 12:43:52 AM 42.0050 -71.8370 50° Northeast 541 623 29,300 1,182 Climbing FlightAware ADS-B
Mon 12:44:27 AM 42.0610 -71.7430 51° Northeast 541 623 30,000 1,075 Climbing FlightAware ADS-B
Mon 12:44:59 AM 42.1070 -71.6690 50° Northeast 541 623 30,500 857 Climbing FlightAware ADS-B
Mon 12:45:37 AM 42.1710 -71.5630 51° Northeast 543 625 31,000 411 Climbing FlightAware ADS-B
Mon 12:46:12 AM 42.2270 -71.4680 51° Northeast 546 628 31,000  Level FlightAware ADS-B
Mon 12:46:52 AM 42.2900 -71.3650 50° Northeast 545 627 31,000  Level FlightAware ADS-B
Mon 12:47:27 AM 42.3450 -71.2720 51° Northeast 545 627 31,000  Level FlightAware ADS-B
Mon 12:48:02 AM 42.4000 -71.1790 51° Northeast 544 626 31,000  Level FlightAware ADS-B
Mon 12:48:37 AM 42.4510 -71.0910 52° Northeast 545 627 31,000  Level FlightAware ADS-B
Mon 12:49:12 AM 42.5090 -70.9920 52° Northeast 545 627 31,000  Level FlightAware ADS-B
Mon 12:49:47 AM 42.5610 -70.9040 51° Northeast 546 628 31,000  Level FlightAware ADS-B
Mon 12:50:22 AM 42.6200 -70.8050 51° Northeast 546 628 31,000  Level FlightAware ADS-B
Mon 12:50:57 AM 42.6770 -70.7080 51° Northeast 547 629 31,000  Level FlightAware ADS-B
Mon 12:51:33 AM 42.7310 -70.6140 52° Northeast 547 629 31,000  Level FlightAware ADS-B
Mon 12:52:03 AM 42.7710 -70.5470 51° Northeast 546 628 31,000  Level FlightAware ADS-B
Mon 12:52:42 AM 42.8360 -70.4330 52° Northeast 547 629 31,000  Level FlightAware ADS-B
Mon 12:53:17 AM 42.8950 -70.3300 52° Northeast 547 629 31,000  Level FlightAware ADS-B
Mon 12:53:52 AM 42.9490 -70.2380 51° Northeast 547 629 31,000  Level FlightAware ADS-B
Mon 12:54:31 AM 43.0120 -70.1290 52° Northeast 548 631 31,000  Level FlightAware ADS-B
Mon 12:55:16 AM 43.0770 -70.0180 51° Northeast 548 631 31,000  Level FlightAware ADS-B
Mon 12:56:01 AM 43.1380 -69.9150 51° Northeast 548 631 31,000  Level FlightAware ADS-B
Mon 12:56:41 AM 43.1920 -69.8230 51° Northeast 548 631 31,000  Level FlightAware ADS-B
Mon 12:57:16 AM 43.2400 -69.7420 51° Northeast 548 631 31,000  Level FlightAware ADS-B
Mon 12:57:52 AM 43.3250 -69.5760 55° Northeast 552 635 31,000  Level FlightAware ADS-B
Mon 12:58:25 AM 43.3700 -69.4950 53° Northeast 552 635 31,000  Level FlightAware ADS-B
Mon 12:59:01 AM 43.4190 -69.4110 51° Northeast 552 635 31,000  Level FlightAware ADS-B
Mon 01:01:45 AM 43.6870 -68.9250 53° Northeast 548 631 31,000  Level FlightAware ADS-B
Mon 01:02:22 AM 43.7350 -68.8370 53° Northeast 548 631 31,000  Level FlightAware ADS-B
Mon 01:02:58 AM 43.7810 -68.7510 53° Northeast 548 631 31,000  Level FlightAware ADS-B
Mon 01:03:35 AM 43.8290 -68.6630 53° Northeast 548 631 31,000  Level FlightAware ADS-B
Mon 01:04:11 AM 43.8760 -68.5770 53° Northeast 548 631 31,000  Level FlightAware ADS-B
Mon 01:04:47 AM 43.9230 -68.4910 53° Northeast 548 631 31,000  Level FlightAware ADS-B
Mon 01:05:27 AM 44.0240 -68.3040 53° Northeast 554 638 31,000  Level FlightAware ADS-B
Mon 01:05:55 AM 44.0710 -68.2190 52° Northeast 553 636 31,000  Level FlightAware ADS-B
Mon 01:06:35 AM 44.1320 -68.1050 53° Northeast 550 633 31,000  Level FlightAware ADS-B
Mon 01:07:11 AM 44.1870 -68.0010 54° Northeast 550 633 31,000  Level FlightAware ADS-B
Mon 01:07:45 AM 44.2390 -67.9010 54° Northeast 549 632 31,000  Level FlightAware ADS-B
Mon 01:08:20 AM 44.2930 -67.8000 53° Northeast 550 633 31,000  Level FlightAware ADS-B
Mon 01:08:55 AM 44.3460 -67.7020 53° Northeast 551 634 31,000 592 Level FlightAware ADS-B
Mon 01:09:31 AM 44.3990 -67.5980 54° Northeast 551 634 31,700 1,114 Climbing FlightAware ADS-B
Mon 01:10:05 AM 44.4520 -67.5000 53° Northeast 551 634 32,300 957 Climbing FlightAware ADS-B
Mon 01:10:40 AM 44.5060 -67.3950 54° Northeast 552 635 32,800 636 Climbing FlightAware ADS-B
Mon 01:11:11 AM 44.5500 -67.3100 54° Northeast 553 636 33,000 171 Climbing FlightAware ADS-B
Mon 01:11:50 AM 44.6120 -67.1910 54° Northeast 552 635 33,000  Level FlightAware ADS-B
Mon 01:12:25 AM 44.6640 -67.0910 54° Northeast 557 641 33,000  Level FlightAware ADS-B
Mon 01:13:00 AM 44.7180 -66.9860 54° Northeast 558 642 33,000  Level FlightAware ADS-B
Mon 01:13:35 AM 44.7700 -66.8860 54° Northeast 558 642 33,000  Level FlightAware ADS-B
Mon 01:14:12 AM 44.8230 -66.7790 55° Northeast 560 644 33,000  Level FlightAware ADS-B
Mon 01:14:46 AM 44.8770 -66.6760 53° Northeast 559 643 33,000  Level FlightAware ADS-B
Mon 01:15:21 AM 44.9300 -66.5720 54° Northeast 561 646 33,000  Level FlightAware ADS-B
Mon 01:15:56 AM 44.9830 -66.4670 54° Northeast 562 647 33,000  Level FlightAware ADS-B
Mon 01:16:31 AM 45.0350 -66.3630 55° Northeast 562 647 33,000  Level FlightAware ADS-B
Mon 01:17:06 AM 45.0870 -66.2580 55° Northeast 561 646 33,000  Level FlightAware ADS-B
Mon 01:17:41 AM 45.1400 -66.1530 54° Northeast 561 646 33,000  Level FlightAware ADS-B
Mon 01:18:17 AM 45.1940 -66.0450 55° Northeast 562 647 33,000  Level FlightAware ADS-B
Mon 01:18:51 AM 45.2450 -65.9420 55° Northeast 562 647 33,000  Level FlightAware ADS-B
Mon 01:19:27 AM 45.2990 -65.8340 55° Northeast 562 647 33,000  Level FlightAware ADS-B
Mon 01:20:01 AM 45.3500 -65.7310 55° Northeast 563 648 33,000  Level FlightAware ADS-B
Mon 01:20:37 AM 45.4030 -65.6210 56° Northeast 563 648 33,000  Level FlightAware ADS-B
Mon 01:21:11 AM 45.4540 -65.5180 55° Northeast 562 647 33,000  Level FlightAware ADS-B
Mon 01:22:07 AM 45.5290 -65.3620 56° Northeast 563 648 33,000  Level FlightAware ADS-B
Mon 01:22:56 AM 45.6030 -65.2090 55° Northeast 563 648 33,000  Level FlightAware ADS-B
Mon 01:23:28 AM 45.6580 -65.0940 56° Northeast 562 647 33,000  Level FlightAware ADS-B
Mon 01:24:05 AM 45.7050 -64.9980 55° Northeast 562 647 33,000  Level FlightAware ADS-B
Mon 01:24:41 AM 45.7510 -64.9040 55° Northeast 562 647 33,000  Level FlightAware ADS-B
Mon 01:25:23 AM 45.8260 -64.7440 56° Northeast 563 648 33,000  Level FlightAware ADS-B
Mon 01:26:05 AM 45.8780 -64.6360 55° Northeast 562 647 33,000  Level FlightAware ADS-B
Mon 01:26:42 AM 45.9250 -64.5390 55° Northeast 562 647 33,000  Level FlightAware ADS-B
Mon 01:27:18 AM 45.9710 -64.4460 55° Northeast 562 647 33,000  Level FlightAware ADS-B
Mon 01:27:53 AM 46.0150 -64.3540 55° Northeast 562 647 33,000  Level FlightAware ADS-B
Mon 01:28:29 AM 46.0610 -64.2600 55° Northeast 562 647 33,000  Level FlightAware ADS-B
Mon 01:29:06 AM 46.1080 -64.1640 55° Northeast 562 647 33,000  Level FlightAware ADS-B
Mon 01:29:42 AM 46.1530 -64.0700 55° Northeast 562 647 33,000  Level FlightAware ADS-B
Mon 01:30:19 AM 46.2000 -63.9730 55° Northeast 562 647 33,000  Level FlightAware ADS-B
Mon 01:30:55 AM 46.2460 -63.8790 55° Northeast 562 647 33,000  Level FlightAware ADS-B
Mon 01:31:31 AM 46.2910 -63.7840 56° Northeast 562 647 33,000  Level FlightAware ADS-B
Mon 01:32:07 AM 46.3370 -63.6900 55° Northeast 562 647 33,000  Level FlightAware ADS-B
Mon 01:32:43 AM 46.3830 -63.5960 55° Northeast 562 647 33,000  Level FlightAware ADS-B
Mon 01:33:19 AM 46.4280 -63.5010 55° Northeast 562 647 33,000  Level FlightAware ADS-B
Mon 01:33:55 AM 46.4740 -63.4070 55° Northeast 562 647 33,000  Level FlightAware ADS-B
Mon 01:34:39 AM 46.6250 -63.0080 61° Northeast 571 657 33,000  Level FlightAware ADS-B
Mon 01:35:15 AM 46.6700 -62.9090 56° Northeast 571 657 33,000  Level FlightAware ADS-B
Mon 01:35:46 AM 46.7280 -62.7760 58° Northeast 573 659 33,000  Level FlightAware ADS-B
Mon 01:36:22 AM 46.7790 -62.6590 57° Northeast 573 659 33,000  Level FlightAware ADS-B
Mon 01:37:00 AM 46.8260 -62.5540 57° Northeast 573 659 33,000  Level FlightAware ADS-B
Mon 01:37:36 AM 46.8700 -62.4550 57° Northeast 573 659 33,000  Level FlightAware ADS-B
Mon 01:38:12 AM 46.9140 -62.3550 57° Northeast 573 659 33,000  Level FlightAware ADS-B
Mon 01:38:48 AM 46.9590 -62.2560 56° Northeast 573 659 33,000  Level FlightAware ADS-B
Mon 01:39:20 AM 47.0330 -62.0780 59° Northeast 573 659 33,000  Level FlightAware ADS-B
Mon 01:40:12 AM 47.1030 -61.9180 57° Northeast 574 661 33,000  Level FlightAware ADS-B
Mon 01:40:46 AM 47.1560 -61.7940 58° Northeast 575 662 33,000  Level FlightAware ADS-B
Mon 01:41:36 AM 47.2210 -61.6420 58° Northeast 575 662 33,000  Level FlightAware ADS-B
Mon 01:42:11 AM 47.2760 -61.5120 58° Northeast 576 663 33,000  Level FlightAware ADS-B
Mon 01:42:46 AM 47.3240 -61.3950 59° Northeast 577 664 33,000  Level FlightAware ADS-B
Mon 01:43:20 AM 47.3730 -61.2790 58° Northeast 576 663 33,000  Level FlightAware ADS-B
Mon 01:43:56 AM 47.4240 -61.1580 58° Northeast 576 663 33,000  Level FlightAware ADS-B
Mon 01:44:32 AM 47.4730 -61.0410 58° Northeast 575 662 33,000  Level FlightAware ADS-B
Mon 01:45:15 AM 47.5230 -60.9210 58° Northeast 575 662 33,000  Level FlightAware ADS-B
Mon 01:45:51 AM 47.5670 -60.8190 57° Northeast 575 662 33,000  Level FlightAware ADS-B
Mon 01:46:27 AM 47.6100 -60.7170 58° Northeast 575 662 33,000  Level FlightAware ADS-B
Mon 01:47:03 AM 47.6530 -60.6140 58° Northeast 575 662 33,000  Level FlightAware ADS-B
Mon 01:47:39 AM 47.6960 -60.5120 58° Northeast 575 662 33,000  Level FlightAware ADS-B
Mon 01:48:15 AM 47.7390 -60.4090 58° Northeast 575 662 33,000  Level FlightAware ADS-B
Mon 01:48:51 AM 47.7820 -60.3060 58° Northeast 575 662 33,000  Level FlightAware ADS-B
Mon 01:49:27 AM 47.8250 -60.2040 58° Northeast 575 662 33,000  Level FlightAware ADS-B
Mon 01:50:03 AM 47.8680 -60.1010 58° Northeast 575 662 33,000  Level FlightAware ADS-B
Mon 01:50:39 AM 47.9120 -59.9980 57° Northeast 575 662 33,000  Level FlightAware ADS-B
Mon 01:51:12 AM 48.0200 -59.6910 62° Northeast 33,000  Level FlightAware ADS-B
Mon 01:51:43 AM 48.0570 -59.5980 59° Northeast 575 662 33,000  Level FlightAware ADS-B
Mon 01:52:22 AM 48.1130 -59.4550 60° Northeast 573 659 33,000  Level FlightAware ADS-B
Mon 01:52:57 AM 48.1610 -59.3320 60° Northeast 572 658 33,000  Level FlightAware ADS-B
Mon 01:53:37 AM 48.2110 -59.2010 60° Northeast 571 657 33,000  Level FlightAware ADS-B
Mon 01:54:12 AM 48.2590 -59.0790 59° Northeast 570 656 33,000  Level FlightAware ADS-B
Mon 01:54:47 AM 48.3070 -58.9520 60° Northeast 568 654 33,000  Level FlightAware ADS-B
Mon 01:55:22 AM 48.3480 -58.8500 59° Northeast 567 652 33,000  Level FlightAware ADS-B
Mon 01:55:52 AM 48.3900 -58.7370 61° Northeast 566 651 33,000  Level FlightAware ADS-B
Mon 01:56:32 AM 48.4430 -58.5970 60° Northeast 565 650 33,000  Level FlightAware ADS-B
Mon 01:57:07 AM 48.4870 -58.4810 60° Northeast 565 650 33,000  Level FlightAware ADS-B
Mon 01:57:43 AM 48.5330 -58.3580 61° Northeast 565 650 33,000  Level FlightAware ADS-B
Mon 01:58:17 AM 48.5780 -58.2380 60° Northeast 565 650 33,000  Level FlightAware ADS-B
Mon 01:58:52 AM 48.6240 -58.1180 60° Northeast 565 650 33,000  Level FlightAware ADS-B
Mon 01:59:27 AM 48.6660 -58.0010 61° Northeast 565 650 33,000  Level FlightAware ADS-B
Mon 02:00:02 AM 48.7130 -57.8770 60° Northeast 564 649 33,000  Level FlightAware ADS-B
Mon 02:00:37 AM 48.7540 -57.7580 62° Northeast 564 649 33,000  Level FlightAware ADS-B
Mon 02:01:12 AM 48.7940 -57.6350 64° Northeast 563 648 33,000  Level FlightAware ADS-B
Mon 02:01:49 AM 48.8360 -57.5080 63° Northeast 563 648 33,000  Level FlightAware ADS-B
Mon 02:02:22 AM 48.8780 -57.3850 63° Northeast 560 644 33,000  Level FlightAware ADS-B
Mon 02:02:57 AM 48.9160 -57.2690 63° Northeast 558 642 33,000  Level FlightAware ADS-B
Mon 02:03:32 AM 48.9590 -57.1400 63° Northeast 556 640 33,000  Level FlightAware ADS-B
Mon 02:04:07 AM 48.9990 -57.0180 63° Northeast 555 639 33,000  Level FlightAware ADS-B
Mon 02:04:42 AM 49.0390 -56.8960 63° Northeast 555 639 33,000  Level FlightAware ADS-B
Mon 02:05:17 AM 49.0770 -56.7800 63° Northeast 556 640 33,000  Level FlightAware ADS-B
Mon 02:05:53 AM 49.1200 -56.6500 63° Northeast 557 641 33,000  Level FlightAware ADS-B
Mon 02:06:27 AM 49.1590 -56.5260 64° Northeast 558 642 33,000  Level FlightAware ADS-B
Mon 02:07:02 AM 49.1980 -56.4060 64° Northeast 559 643 33,000  Level FlightAware ADS-B
Mon 02:07:37 AM 49.2370 -56.2820 64° Northeast 561 646 33,000  Level FlightAware ADS-B
Mon 02:08:12 AM 49.2780 -56.1530 64° Northeast 560 644 33,000  Level FlightAware ADS-B
Mon 02:08:47 AM 49.3180 -56.0250 64° Northeast 563 648 33,000  Level FlightAware ADS-B
Mon 02:09:22 AM 49.3580 -55.9020 63° Northeast 564 649 33,000  Level FlightAware ADS-B
Mon 02:09:57 AM 49.3970 -55.7760 65° Northeast 566 651 33,000  Level FlightAware ADS-B
Mon 02:10:32 AM 49.4370 -55.6490 64° Northeast 568 654 33,000  Level FlightAware ADS-B
Mon 02:11:07 AM 49.4760 -55.5210 65° Northeast 569 655 33,000  Level FlightAware ADS-B
Mon 02:11:45 AM 49.5160 -55.3930 64° Northeast 572 658 33,000  Level FlightAware ADS-B
Mon 02:12:22 AM 49.5610 -55.2460 65° Northeast 573 659 33,000  Level FlightAware ADS-B
Mon 02:13:02 AM 49.6060 -55.0980 65° Northeast 574 661 33,000  Level FlightAware ADS-B
Mon 02:13:32 AM 49.6390 -54.9910 65° Northeast 572 658 33,000  Level FlightAware ADS-B
Mon 02:14:09 AM 49.6790 -54.8580 65° Northeast 570 656 33,000  Level FlightAware ADS-B
Mon 02:14:42 AM 49.7170 -54.7290 65° Northeast 568 654 33,000  Level FlightAware ADS-B
Mon 02:15:22 AM 49.7620 -54.5820 65° Northeast 566 651 33,000  Level FlightAware ADS-B
Mon 02:15:57 AM 49.8000 -54.4540 65° Northeast 564 649 33,000  Level FlightAware ADS-B
Mon 02:16:27 AM 49.8320 -54.3440 66° East 561 646 33,000  Level FlightAware ADS-B
Mon 02:17:07 AM 49.8750 -54.1980 65° Northeast 559 643 33,000  Level FlightAware ADS-B
Mon 02:17:37 AM 49.9070 -54.0890 65° Northeast 558 642 33,000  Level FlightAware ADS-B
Mon 02:18:13 AM 49.9430 -53.9650 66° East 557 641 33,000  Level FlightAware ADS-B
Mon 02:18:52 AM 49.9850 -53.8160 66° East 556 640 33,000  Level FlightAware ADS-B
Mon 02:19:27 AM 50.0220 -53.6880 66° East 556 640 33,000  Level FlightAware ADS-B
Mon 02:19:57 AM 50.0530 -53.5820 65° Northeast 555 639 33,000  Level FlightAware ADS-B
Mon 02:20:32 AM 50.0910 -53.4510 66° East 556 640 33,000  Level FlightAware ADS-B
Mon 02:21:07 AM 50.1270 -53.3230 66° East 557 641 33,000  Level FlightAware ADS-B
Mon 02:21:47 AM 50.1660 -53.1800 67° East 558 642 33,000  Level FlightAware ADS-B
Mon 02:22:17 AM 50.1940 -53.0800 66° East 559 643 33,000  Level FlightAware ADS-B
Mon 02:22:52 AM 50.2350 -52.9360 66° East 560 644 33,000  Level FlightAware ADS-B
Mon 02:23:27 AM 50.2700 -52.8090 67° East 562 647 33,000  Level FlightAware ADS-B
Mon 02:24:02 AM 50.3040 -52.6860 67° East 563 648 33,000  Level FlightAware ADS-B
Mon 02:24:39 AM 50.3370 -52.5690 66° East 563 648 33,000  Level FlightAware ADS-B
Mon 02:25:16 AM 50.3700 -52.4520 66° East 563 648 33,000  Level FlightAware ADS-B
Mon 02:25:48 AM 50.4130 -52.2840 68° East 562 647 33,000  Level FlightAware ADS-B
Mon 02:26:24 AM 50.4460 -52.1640 67° East 562 647 33,000  Level FlightAware ADS-B
Mon 02:27:01 AM 50.4780 -52.0460 67° East 562 647 33,000  Level FlightAware ADS-B
Mon 02:27:37 AM 50.5090 -51.9300 67° East 562 647 33,000  Level FlightAware ADS-B
Mon 02:28:13 AM 50.5400 -51.8150 67° East 562 647 33,000  Level FlightAware ADS-B
Mon 02:28:49 AM 50.5710 -51.7000 67° East 562 647 33,000  Level FlightAware ADS-B
Mon 02:29:25 AM 50.6020 -51.5850 67° East 562 647 33,000  Level FlightAware ADS-B
Mon 02:30:01 AM 50.6330 -51.4690 67° East 562 647 33,000  Level FlightAware ADS-B
Mon 02:30:37 AM 50.6640 -51.3540 67° East 562 647 33,000  Level FlightAware ADS-B
Mon 02:31:13 AM 50.6950 -51.2380 67° East 562 647 33,000  Level FlightAware ADS-B
Mon 02:31:48 AM 50.7250 -51.1260 67° East 562 647 33,000  Level FlightAware ADS-B
Mon 02:32:24 AM 50.7560 -51.0100 67° East 562 647 33,000  Level FlightAware ADS-B
Mon 02:33:00 AM 50.7870 -50.8940 67° East 562 647 33,000  Level FlightAware ADS-B
Mon 02:33:36 AM 50.8180 -50.7780 67° East 562 647 33,000  Level FlightAware ADS-B
Mon 02:34:13 AM 50.8500 -50.6590 67° East 562 647 33,000  Level FlightAware ADS-B
Mon 02:34:49 AM 50.8810 -50.5430 67° East 562 647 33,000  Level FlightAware ADS-B
Mon 02:35:25 AM 50.9120 -50.4270 67° East 562 647 33,000  Level FlightAware ADS-B
Mon 02:36:21 AM 51.0000 -49.8167 67° East 580 667 33,000  Level Moncton Center
Mon 02:37:00 AM 51.0000 -50.0000 68° East 554 638 33,000  Level ETMS Enhanced Traffic Management System
Mon 02:37:21 AM 51.0667 -49.5833 65° Northeast 560 644 33,000  Level Moncton Center
Mon 02:37:46 AM 51.0833 -49.4833 68° East 570 656 33,000  Level Gander Center
Mon 02:38:46 AM 51.1500 -49.2667 64° Northeast 570 656 33,000  Level Gander Center
Mon 02:40:00 AM 51.2180 -49.0005 68° East  Level FlightAware Approximate
Mon 02:47:00 AM 51.5912 -47.4739 70° East  Level FlightAware Approximate
Mon 02:48:00 AM 51.6405 -47.2525 70° East  Level FlightAware Approximate
Mon 02:49:00 AM 51.6894 -47.0305 70° East  Level FlightAware Approximate
Mon 02:50:00 AM 51.7378 -46.8082 71° East  Level FlightAware Approximate
Mon 02:51:00 AM 51.7858 -46.5853 71° East  Level FlightAware Approximate
Mon 02:52:00 AM 51.8334 -46.3619 71° East  Level FlightAware Approximate
Mon 02:53:00 AM 51.8806 -46.1381 71° East  Level FlightAware Approximate
Mon 02:54:00 AM 51.9274 -45.9138 71° East  Level FlightAware Approximate
Mon 02:55:00 AM 51.9737 -45.6891 71° East  Level FlightAware Approximate
Mon 02:56:00 AM 52.0196 -45.4639 72° East  Level FlightAware Approximate
Mon 02:57:00 AM 52.0651 -45.2382 72° East  Level FlightAware Approximate
Mon 02:58:00 AM 52.1101 -45.0121 72° East  Level FlightAware Approximate
Mon 02:59:00 AM 52.1547 -44.7855 72° East  Level FlightAware Approximate
Mon 03:00:00 AM 52.1989 -44.5585 72° East  Level FlightAware Approximate
Mon 03:01:00 AM 52.2426 -44.3310 72° East  Level FlightAware Approximate
Mon 03:02:00 AM 52.2859 -44.1031 73° East  Level FlightAware Approximate
Mon 03:03:00 AM 52.3287 -43.8747 73° East  Level FlightAware Approximate
Mon 03:04:00 AM 52.3723 -43.6464 73° East  Level FlightAware Approximate
Mon 03:05:00 AM 52.4155 -43.4178 73° East  Level FlightAware Approximate
Mon 03:06:00 AM 52.4582 -43.1887 73° East  Level FlightAware Approximate
Mon 03:07:00 AM 52.5006 -42.9591 73° East  Level FlightAware Approximate
Mon 03:08:00 AM 52.5424 -42.7292 73° East  Level FlightAware Approximate
Mon 03:09:00 AM 52.5839 -42.4988 73° East  Level FlightAware Approximate
Mon 03:10:00 AM 52.6249 -42.2679 74° East  Level FlightAware Approximate
Mon 03:11:00 AM 52.6654 -42.0367 74° East  Level FlightAware Approximate
Mon 03:12:00 AM 52.7055 -41.8050 74° East  Level FlightAware Approximate
Mon 03:13:00 AM 52.7452 -41.5728 74° East  Level FlightAware Approximate
Mon 03:14:00 AM 52.7843 -41.3403 74° East  Level FlightAware Approximate
Mon 03:15:00 AM 52.8231 -41.1073 75° East  Level FlightAware Approximate
Mon 03:16:00 AM 52.8613 -40.8740 75° East  Level FlightAware Approximate
Mon 03:17:00 AM 52.8991 -40.6402 75° East  Level FlightAware Approximate
Mon 03:18:00 AM 52.9365 -40.4060 75° East  Level FlightAware Approximate
Mon 03:18:00 AM 53.0000 -40.0000 76° East 542 624 33,000  Level ETMS Enhanced Traffic Management System
Mon 03:19:00 AM 52.9733 -40.1718 75° East  Level FlightAware Approximate
Mon 03:20:00 AM 53.0090 -39.9370 77° East  Level FlightAware Approximate
Mon 03:21:00 AM 53.0424 -39.7010 77° East  Level FlightAware Approximate
Mon 03:22:00 AM 53.0753 -39.4646 77° East  Level FlightAware Approximate
Mon 03:23:00 AM 53.1077 -39.2279 77° East  Level FlightAware Approximate
Mon 03:24:00 AM 53.2347 -38.2868 78° East 542 624 33,000  Level FlightAware Transoceanic
Mon 03:25:00 AM 53.2662 -38.0406 78° East 542 624 33,000  Level FlightAware Transoceanic
Mon 03:26:00 AM 53.2972 -37.7940 78° East 542 624 33,000  Level FlightAware Transoceanic
Mon 03:27:00 AM 53.3277 -37.5471 78° East 542 624 33,000  Level FlightAware Transoceanic
Mon 03:28:00 AM 53.3577 -37.2998 79° East 542 624 33,000  Level FlightAware Transoceanic
Mon 03:29:00 AM 53.3872 -37.0521 79° East 542 624 33,000  Level FlightAware Transoceanic
Mon 03:30:00 AM 53.4161 -36.8041 79° East 542 624 33,000  Level FlightAware Transoceanic
Mon 03:31:00 AM 53.4446 -36.5558 79° East 542 624 33,000  Level FlightAware Transoceanic
Mon 03:32:00 AM 53.4725 -36.3071 79° East 542 624 33,000  Level FlightAware Transoceanic
Mon 03:33:00 AM 53.4999 -36.0582 80° East 542 624 33,000  Level FlightAware Transoceanic
Mon 03:34:00 AM 53.5268 -35.8089 80° East 542 624 33,000  Level FlightAware Transoceanic
Mon 03:35:00 AM 53.5532 -35.5593 80° East 542 624 33,000  Level FlightAware Transoceanic
Mon 03:36:00 AM 53.5790 -35.3093 80° East 542 624 33,000  Level FlightAware Transoceanic
Mon 03:37:00 AM 53.6044 -35.0591 80° East 542 624 33,000  Level FlightAware Transoceanic
Mon 03:38:00 AM 53.6292 -34.8086 81° East 542 624 33,000  Level FlightAware Transoceanic
Mon 03:39:00 AM 53.6535 -34.5578 81° East 542 624 33,000  Level FlightAware Transoceanic
Mon 03:40:00 AM 53.6772 -34.3067 81° East 542 624 33,000  Level FlightAware Transoceanic
Mon 03:41:00 AM 53.7005 -34.0553 81° East 542 624 33,000  Level FlightAware Transoceanic
Mon 03:42:00 AM 53.7232 -33.8037 81° East 542 624 33,000  Level FlightAware Transoceanic
Mon 03:43:00 AM 53.7454 -33.5518 82° East 542 624 33,000  Level FlightAware Transoceanic
Mon 03:44:00 AM 53.7670 -33.2996 82° East 542 624 33,000  Level FlightAware Transoceanic
Mon 03:45:00 AM 53.7882 -33.0471 82° East 542 624 33,000  Level FlightAware Transoceanic
Mon 03:46:00 AM 53.8087 -32.7944 82° East 542 624 33,000  Level FlightAware Transoceanic
Mon 03:47:00 AM 53.8288 -32.5415 82° East 542 624 33,000  Level FlightAware Transoceanic
Mon 03:48:00 AM 53.8483 -32.2883 83° East 542 624 33,000  Level FlightAware Transoceanic
Mon 03:49:00 AM 53.8673 -32.0349 83° East 542 624 33,000  Level FlightAware Transoceanic
Mon 03:50:00 AM 53.8858 -31.7813 83° East 542 624 33,000  Level FlightAware Transoceanic
Mon 03:51:00 AM 53.9037 -31.5274 83° East 542 624 33,000  Level FlightAware Transoceanic
Mon 03:52:00 AM 53.9211 -31.2734 83° East 542 624 33,000  Level FlightAware Transoceanic
Mon 03:53:00 AM 53.9380 -31.0191 84° East 542 624 33,000  Level FlightAware Transoceanic
Mon 03:54:00 AM 53.9543 -30.7646 84° East 542 624 33,000  Level FlightAware Transoceanic
Mon 03:55:00 AM 53.9701 -30.5099 84° East 542 624 33,000  Level FlightAware Transoceanic
Mon 03:56:00 AM 53.9853 -30.2551 84° East 542 624 33,000  Level FlightAware Transoceanic
Mon 03:57:00 AM 53.9995 -30.0082 84° East  Level FlightAware Approximate
Mon 03:58:00 AM 54.0131 -29.7612 85° East  Level FlightAware Approximate
Mon 03:58:28 AM 54.0000 -30.0000 76° East 543 625 33,000  Level ETMS Enhanced Traffic Management System
Mon 03:59:00 AM 54.0320 -29.7748 76° East  Level FlightAware Approximate
Mon 04:00:00 AM 54.0657 -29.5341 77° East  Level FlightAware Approximate
Mon 04:01:00 AM 54.0989 -29.2929 77° East  Level FlightAware Approximate
Mon 04:02:00 AM 54.1316 -29.0514 77° East  Level FlightAware Approximate
Mon 04:03:00 AM 54.1638 -28.8095 77° East  Level FlightAware Approximate
Mon 04:04:00 AM 54.2397 -28.2440 78° East 543 625 33,000  Level FlightAware Transoceanic
Mon 04:05:00 AM 54.2718 -27.9915 78° East 543 625 33,000  Level FlightAware Transoceanic
Mon 04:06:00 AM 54.3035 -27.7387 78° East 543 625 33,000  Level FlightAware Transoceanic
Mon 04:07:00 AM 54.3345 -27.4854 78° East 543 625 33,000  Level FlightAware Transoceanic
Mon 04:08:00 AM 54.3651 -27.2318 78° East 543 625 33,000  Level FlightAware Transoceanic
Mon 04:09:00 AM 54.3951 -26.9778 79° East 543 625 33,000  Level FlightAware Transoceanic
Mon 04:10:00 AM 54.4246 -26.7234 79° East 543 625 33,000  Level FlightAware Transoceanic
Mon 04:11:00 AM 54.4536 -26.4686 79° East 543 625 33,000  Level FlightAware Transoceanic
Mon 04:12:00 AM 54.4820 -26.2135 79° East 543 625 33,000  Level FlightAware Transoceanic
Mon 04:13:00 AM 54.5099 -25.9581 79° East 543 625 33,000  Level FlightAware Transoceanic
Mon 04:14:00 AM 54.5372 -25.7023 80° East 543 625 33,000  Level FlightAware Transoceanic
Mon 04:15:00 AM 54.5640 -25.4462 80° East 543 625 33,000  Level FlightAware Transoceanic
Mon 04:16:00 AM 54.5903 -25.1897 80° East 543 625 33,000  Level FlightAware Transoceanic
Mon 04:17:00 AM 54.6160 -24.9329 80° East 543 625 33,000  Level FlightAware Transoceanic
Mon 04:18:00 AM 54.6412 -24.6758 81° East 543 625 33,000  Level FlightAware Transoceanic
Mon 04:19:00 AM 54.6658 -24.4183 81° East 543 625 33,000  Level FlightAware Transoceanic
Mon 04:20:00 AM 54.6899 -24.1606 81° East 543 625 33,000  Level FlightAware Transoceanic
Mon 04:21:00 AM 54.7134 -23.9025 81° East 543 625 33,000  Level FlightAware Transoceanic
Mon 04:22:00 AM 54.7364 -23.6442 81° East 543 625 33,000  Level FlightAware Transoceanic
Mon 04:23:00 AM 54.7588 -23.3856 82° East 543 625 33,000  Level FlightAware Transoceanic
Mon 04:24:00 AM 54.7807 -23.1267 82° East 543 625 33,000  Level FlightAware Transoceanic
Mon 04:25:00 AM 54.8020 -22.8675 82° East 543 625 33,000  Level FlightAware Transoceanic
Mon 04:26:00 AM 54.8228 -22.6080 82° East 543 625 33,000  Level FlightAware Transoceanic
Mon 04:27:00 AM 54.8430 -22.3483 82° East 543 625 33,000  Level FlightAware Transoceanic
Mon 04:28:00 AM 54.8627 -22.0883 83° East 543 625 33,000  Level FlightAware Transoceanic
Mon 04:29:00 AM 54.8818 -21.8281 83° East 543 625 33,000  Level FlightAware Transoceanic
Mon 04:30:00 AM 54.9004 -21.5676 83° East 543 625 33,000  Level FlightAware Transoceanic
Mon 04:31:00 AM 54.9184 -21.3069 83° East 543 625 33,000  Level FlightAware Transoceanic
Mon 04:32:00 AM 54.9358 -21.0459 83° East 543 625 33,000  Level FlightAware Transoceanic
Mon 04:33:00 AM 54.9527 -20.7848 84° East 543 625 33,000  Level FlightAware Transoceanic
Mon 04:34:00 AM 54.9690 -20.5234 84° East 543 625 33,000  Level FlightAware Transoceanic
Mon 04:35:00 AM 54.9848 -20.2618 84° East 543 625 33,000 59 Level FlightAware Transoceanic
Mon 04:36:00 AM 54.9994 -20.0098 84° East  Level FlightAware Approximate
Mon 04:37:00 AM 55.0136 -19.7576 84° East  Level FlightAware Approximate
Mon 04:38:00 AM 54.9719 -19.7716 102° East  Level FlightAware Approximate
Mon 04:39:00 AM 54.9409 -19.5244 102° East  Level FlightAware Approximate
Mon 04:40:00 AM 54.9095 -19.2780 102° East  Level FlightAware Approximate
Mon 04:41:00 AM 54.8776 -19.0319 103° East  Level FlightAware Approximate
Mon 04:42:00 AM 54.8452 -18.7863 103° East  Level FlightAware Approximate
Mon 04:43:00 AM 54.8123 -18.5410 103° East  Level FlightAware Approximate
Mon 04:44:00 AM 54.7789 -18.2962 103° East  Level FlightAware Approximate
Mon 04:45:00 AM 54.7450 -18.0517 103° East  Level FlightAware Approximate
Mon 04:46:00 AM 54.7107 -17.8077 104° East  Level FlightAware Approximate
Mon 04:47:00 AM 54.6758 -17.5641 104° East  Level FlightAware Approximate
Mon 04:48:00 AM 54.6405 -17.3209 104° East  Level FlightAware Approximate
Mon 04:49:00 AM 54.6046 -17.0781 104° East  Level FlightAware Approximate
Mon 04:50:00 AM 54.5683 -16.8357 104° East  Level FlightAware Approximate
Mon 04:51:00 AM 54.5315 -16.5938 105° East  Level FlightAware Approximate
Mon 04:52:00 AM 54.4942 -16.3524 105° East  Level FlightAware Approximate
Mon 04:53:00 AM 54.4565 -16.1113 105° East  Level FlightAware Approximate
Mon 04:54:00 AM 54.4182 -15.8708 105° East  Level FlightAware Approximate
Mon 04:55:00 AM 54.3795 -15.6306 105° East  Level FlightAware Approximate
Mon 04:56:00 AM 54.3403 -15.3910 106° East  Level FlightAware Approximate
Mon 04:57:00 AM 54.3006 -15.1517 106° East  Level FlightAware Approximate
Mon 04:58:00 AM 54.2605 -14.9130 106° East  Level FlightAware Approximate
Mon 04:59:00 AM 54.2198 -14.6747 106° East  Level FlightAware Approximate
Mon 05:00:00 AM 54.1788 -14.4369 106° East  Level FlightAware Approximate
Mon 05:01:00 AM 54.1372 -14.1996 107° East  Level FlightAware Approximate
Mon 05:02:00 AM 54.0980 -13.9614 105° East  Level FlightAware Approximate
Mon 05:03:00 AM 54.0577 -13.7239 107° East  Level FlightAware Approximate
Mon 05:04:00 AM 54.0149 -13.4879 107° East  Level FlightAware Approximate
Mon 05:05:00 AM 53.9716 -13.2524 107° East  Level FlightAware Approximate
Mon 05:06:00 AM 53.9278 -13.0174 107° East  Level FlightAware Approximate
Mon 05:07:00 AM 53.8837 -12.7829 108° East  Level FlightAware Approximate
Mon 05:07:46 AM 54.3170 -11.9480 108° East 568 654 35,000  Level FlightAware ADS-B
Mon 05:08:00 AM 53.8390 -12.5489 108° East  Level FlightAware Approximate
Mon 05:08:21 AM 54.2760 -11.8060 116° Southeast 572 658 35,000  Level FlightAware ADS-B
Mon 05:08:56 AM 54.2380 -11.6730 116° Southeast 570 656 35,000  Level FlightAware ADS-B
Mon 05:09:31 AM 54.1980 -11.5410 117° Southeast 569 655 35,000  Level FlightAware ADS-B
Mon 05:10:06 AM 54.1520 -11.3850 117° Southeast 569 655 35,000  Level FlightAware ADS-B
Mon 05:10:42 AM 54.1120 -11.2490 117° Southeast 570 656 35,000  Level FlightAware ADS-B
Mon 05:11:12 AM 54.0730 -11.1210 117° Southeast 570 656 35,000  Level FlightAware ADS-B
Mon 05:11:47 AM 54.0310 -10.9820 117° Southeast 571 657 35,000  Level FlightAware ADS-B
Mon 05:12:26 AM 53.9880 -10.8420 118° Southeast 572 658 35,000  Level FlightAware ADS-B
Mon 05:13:02 AM 53.9400 -10.6860 118° Southeast 573 659 35,000  Level FlightAware ADS-B
Mon 05:13:31 AM 53.9080 -10.5790 117° Southeast 573 659 35,000  Level FlightAware ADS-B
Mon 05:14:13 AM 53.8560 -10.4130 118° Southeast 573 659 35,000  Level FlightAware ADS-B
Mon 05:14:47 AM 53.8100 -10.2620 117° Southeast 572 658 35,000  Level FlightAware ADS-B
Mon 05:15:21 AM 53.7690 -10.1320 118° Southeast 572 658 35,000  Level FlightAware ADS-B
Mon 05:15:57 AM 53.7270 -10.0020 119° Southeast 572 658 35,000  Level FlightAware ADS-B
Mon 05:16:32 AM 53.6820 -9.8570 118° Southeast 572 658 35,000  Level FlightAware ADS-B
Mon 05:17:06 AM 53.6370 -9.7160 118° Southeast 572 658 35,000  Level FlightAware ADS-B
Mon 05:17:42 AM 53.5960 -9.5860 118° Southeast 572 658 35,000  Level FlightAware ADS-B
Mon 05:18:22 AM 53.5470 -9.4340 118° Southeast 572 658 35,000  Level FlightAware ADS-B
Mon 05:18:57 AM 53.5010 -9.2900 118° Southeast 571 657 35,000  Level FlightAware ADS-B
Mon 05:19:36 AM 53.4480 -9.1270 119° Southeast 571 657 35,000  Level FlightAware ADS-B
Mon 05:20:12 AM 53.4070 -9.0070 120° Southeast 571 657 35,000  Level FlightAware ADS-B
Mon 05:20:37 AM 53.3730 -8.8990 120° Southeast 570 656 35,000  Level FlightAware ADS-B
Mon 05:20:44 AM 53.3606 -8.8628 120° Southeast 492 566 35,000  Level FlightAware UK
Mon 05:21:14 AM 53.3224 -8.7470 120° Southeast 490 564 35,000  Level FlightAware UK
Mon 05:21:17 AM 53.3210 -8.7450 120° Southeast 569 655 35,000  Level FlightAware ADS-B
Mon 05:21:57 AM 53.2690 -8.5880 119° Southeast 569 655 35,000  Level FlightAware ADS-B
Mon 05:22:26 AM 53.2320 -8.4770 119° Southeast 568 654 35,000  Level FlightAware ADS-B
Mon 05:23:02 AM 53.1880 -8.3480 120° Southeast 568 654 35,000  Level FlightAware ADS-B
Mon 05:23:36 AM 53.1450 -8.2190 119° Southeast 566 651 35,000  Level FlightAware ADS-B
Mon 05:24:11 AM 53.0970 -8.0780 119° Southeast 566 651 35,000  Level FlightAware ADS-B
Mon 05:24:14 AM 53.0912 -8.0599 119° Southeast 494 568 35,000  Level FlightAware UK
Mon 05:24:44 AM 53.0525 -7.9466 119° Southeast 494 568 35,000  Level FlightAware UK
Mon 05:24:46 AM 53.0570 -7.9620 119° Southeast 564 649 35,000  Level FlightAware ADS-B
Mon 05:25:26 AM 53.0010 -7.8010 120° Southeast 561 646 35,000  Level FlightAware ADS-B
Mon 05:26:01 AM 52.9540 -7.6630 119° Southeast 560 644 35,000  Level FlightAware ADS-B
Mon 05:26:35 AM 52.9110 -7.5400 120° Southeast 560 644 35,000  Level FlightAware ADS-B
Mon 05:27:11 AM 52.8630 -7.4030 120° Southeast 560 644 35,000  Level FlightAware ADS-B
Mon 05:27:44 AM 52.8201 -7.2781 120° Southeast 490 564 35,000  Level FlightAware UK
Mon 05:27:46 AM 52.8190 -7.2770 120° Southeast 562 647 35,000  Level FlightAware ADS-B
Mon 05:28:18 AM 52.7770 -7.1590 120° Southeast 562 647 35,000  Level FlightAware ADS-B
Mon 05:28:55 AM 52.7290 -7.0220 120° Southeast 562 647 35,000  Level FlightAware ADS-B
Mon 05:29:29 AM 52.6830 -6.8970 121° Southeast 562 647 35,000  Level FlightAware ADS-B
Mon 05:30:03 AM 52.6380 -6.7680 120° Southeast 560 644 35,000  Level FlightAware ADS-B
Mon 05:30:41 AM 52.5900 -6.6360 121° Southeast 561 646 35,000  Level FlightAware ADS-B
Mon 05:31:15 AM 52.5430 -6.5039 121° Southeast 502 578 35,000  Level FlightAware UK
Mon 05:31:17 AM 52.5400 -6.4970 121° Southeast 558 642 35,000  Level FlightAware ADS-B
Mon 05:31:49 AM 52.4980 -6.3810 121° Southeast 556 640 35,000  Level FlightAware ADS-B
Mon 05:32:25 AM 52.4500 -6.2510 121° Southeast 554 638 35,000  Level FlightAware ADS-B
Mon 05:33:01 AM 52.4040 -6.1260 121° Southeast 552 635 35,000  Level FlightAware ADS-B
Mon 05:33:29 AM 52.3660 -6.0230 121° Southeast 551 634 35,000  Level FlightAware ADS-B
Mon 05:34:01 AM 52.3240 -5.9120 122° Southeast 550 633 35,000  Level FlightAware ADS-B
Mon 05:34:30 AM 52.2860 -5.8100 121° Southeast 550 633 35,000  Level FlightAware ADS-B
Mon 05:35:06 AM 52.2390 -5.6820 121° Southeast 550 633 35,000  Level FlightAware ADS-B
Mon 05:35:40 AM 52.1930 -5.5620 122° Southeast 548 631 35,000  Level FlightAware ADS-B
Mon 05:36:15 AM 52.1460 -5.4352 122° Southeast 494 568 35,000  Level FlightAware UK
Mon 05:36:16 AM 52.1450 -5.4360 122° Southeast 548 631 35,000  Level FlightAware ADS-B
Mon 05:36:51 AM 52.0980 -5.3140 122° Southeast 548 631 35,000  Level FlightAware ADS-B
Mon 05:37:27 AM 52.0500 -5.1880 122° Southeast 547 629 35,000  Level FlightAware ADS-B
Mon 05:37:59 AM 52.0110 -5.0740 119° Southeast 547 629 35,000  Level FlightAware ADS-B
Mon 05:38:35 AM 51.9810 -4.9310 109° East 546 628 35,000  Level FlightAware ADS-B
Mon 05:39:11 AM 51.9590 -4.7920 104° East 545 627 35,000  Level FlightAware ADS-B
Mon 05:39:47 AM 51.9370 -4.6510 104° East 544 626 35,000  Level FlightAware ADS-B
Mon 05:40:20 AM 51.9160 -4.5200 105° East 543 625 35,000  Level FlightAware ADS-B
Mon 05:40:52 AM 51.8970 -4.3940 104° East 544 626 35,000  Level FlightAware ADS-B
Mon 05:41:31 AM 51.8760 -4.2430 104° East 545 627 35,000  Level FlightAware ADS-B
Mon 05:41:33 AM 51.8741 -4.2256 104° East 492 566 35,000  Level FlightAware UK
Mon 05:42:03 AM 51.8617 -4.1051 104° East 492 566 35,000  Level FlightAware UK
Mon 05:42:07 AM 51.8610 -4.0910 104° East 546 628 35,000  Level FlightAware ADS-B
Mon 05:42:39 AM 51.8485 -3.9589 104° East 494 568 35,000  Level FlightAware UK
Mon 05:42:43 AM 51.8470 -3.9450 104° East 547 629 35,000  Level FlightAware ADS-B
Mon 05:43:15 AM 51.8360 -3.8200 98° East 547 629 35,000  Level FlightAware ADS-B
Mon 05:43:39 AM 51.8278 -3.7187 97° East 547 629 35,000  Level FlightAware ADS-B
Mon 05:44:21 AM 51.8129 -3.5488 98° East 548 631 35,000  Level FlightAware ADS-B
Mon 05:44:52 AM 51.8017 -3.4231 98° East 549 632 35,000  Level FlightAware ADS-B
Mon 05:45:23 AM 51.7905 -3.2977 98° East 551 634 35,000  Level FlightAware ADS-B
Mon 05:45:55 AM 51.7789 -3.1675 98° East 552 635 35,000  Level FlightAware ADS-B
Mon 05:46:26 AM 51.7675 -3.0411 98° East 553 636 35,000  Level FlightAware ADS-B
Mon 05:46:57 AM 51.7558 -2.9151 98° East 553 636 35,000  Level FlightAware ADS-B
Mon 05:47:27 AM 51.7444 -2.7926 98° East 554 638 35,000  Level FlightAware ADS-B
Mon 05:47:57 AM 51.7328 -2.6702 99° East 554 638 35,000  Level FlightAware ADS-B
Mon 05:48:27 AM 51.7210 -2.5482 99° East 553 636 35,000  Level FlightAware ADS-B
Mon 05:48:58 AM 51.7088 -2.4222 99° East 554 638 35,000  Level FlightAware ADS-B
Mon 05:49:31 AM 51.6955 -2.2880 99° East 553 636 35,000  Level FlightAware ADS-B
Mon 05:50:03 AM 51.6828 -2.1583 99° East 552 635 35,000  Level FlightAware ADS-B
Mon 05:50:35 AM 51.6699 -2.0328 99° East 551 634 35,000  Level FlightAware ADS-B
Mon 05:51:06 AM 51.6572 -1.9080 99° East 550 633 35,000  Level FlightAware ADS-B
Mon 05:51:36 AM 51.6445 -1.7830 99° East 549 632 35,000  Level FlightAware ADS-B
Mon 05:52:09 AM 51.6311 -1.6540 99° East 549 632 35,000  Level FlightAware ADS-B
Mon 05:52:39 AM 51.6183 -1.5295 99° East 549 632 35,000  Level FlightAware ADS-B
Mon 05:53:10 AM 51.6050 -1.4050 100° East 550 633 35,000  Level FlightAware ADS-B
Mon 05:53:41 AM 51.5916 -1.2804 100° East 551 634 35,000  Level FlightAware ADS-B
Mon 05:54:12 AM 51.5783 -1.1550 100° East 553 636 35,000  Level FlightAware ADS-B
Mon 05:54:42 AM 51.5648 -1.0340 100° East 554 638 35,000  Level FlightAware ADS-B
Mon 05:55:12 AM 51.5512 -0.9125 100° East 556 640 35,000  Level FlightAware ADS-B
Mon 05:55:43 AM 51.5375 -0.7908 100° East 556 640 35,000  Level FlightAware ADS-B
Mon 05:56:13 AM 51.5233 -0.6651 100° East 557 641 35,000  Level FlightAware ADS-B
Mon 05:56:44 AM 51.5089 -0.5391 100° East 558 642 35,000  Level FlightAware ADS-B
Mon 05:57:15 AM 51.4944 -0.4131 100° East 560 644 35,000  Level FlightAware ADS-B
Mon 05:57:51 AM 51.4772 -0.2663 101° East 561 646 35,000  Level FlightAware ADS-B
Mon 05:58:22 AM 51.4624 -0.1403 101° East 561 646 35,000  Level FlightAware ADS-B
Mon 05:58:52 AM 51.4476 -0.0181 101° East 561 646 35,000  Level FlightAware ADS-B
Mon 05:59:23 AM 51.4324 0.1084 101° East 561 646 35,000  Level FlightAware ADS-B
Mon 05:59:54 AM 51.4173 0.2346 101° East 562 647 35,000  Level FlightAware ADS-B
Mon 06:00:32 AM 51.3979 0.3896 101° East 563 648 35,000  Level FlightAware ADS-B
Mon 06:01:03 AM 51.3824 0.5166 101° East 565 650 35,000  Level FlightAware ADS-B
Mon 06:01:35 AM 51.3659 0.6472 101° East 566 651 35,000  Level FlightAware ADS-B
Mon 06:02:05 AM 51.3503 0.7705 101° East 566 651 35,000  Level FlightAware ADS-B
Mon 06:02:35 AM 51.3345 0.8933 102° East 567 652 35,000  Level FlightAware ADS-B
Mon 06:03:06 AM 51.3200 1.0080 101° East 566 651 35,000  Level FlightAware ADS-B
Mon 06:03:43 AM 51.2990 1.1720 102° East 566 651 35,000  Level FlightAware ADS-B
Mon 06:04:14 AM 51.2820 1.2950 102° East 566 651 35,000  Level FlightAware ADS-B
Mon 06:04:51 AM 51.2620 1.4490 102° East 566 651 35,000  Level FlightAware ADS-B
Mon 06:05:28 AM 51.2420 1.5960 102° East 566 651 35,000  Level FlightAware ADS-B
Mon 06:06:01 AM 51.2240 1.7310 102° East 565 650 35,000  Level FlightAware ADS-B
Mon 06:06:38 AM 51.2030 1.8810 103° East 564 649 35,000  Level FlightAware ADS-B
Mon 06:07:14 AM 51.1830 2.0310 102° East 565 650 35,000  Level FlightAware ADS-B
Mon 06:07:46 AM 51.1590 2.1570 107° East 551 634 35,000  Level FlightAware ADS-B
Mon 06:08:19 AM 51.1213 2.2772 107° East 488 562 35,000  Level FlightAware UK
Mon 06:08:28 AM 51.1112 2.3081 107° East 548 631 35,000  Level FlightAware ADS-B
Mon 06:09:25 AM 51.0471 2.5166 107° East 486 559 35,000  Level FlightAware UK
Mon 06:09:31 AM 51.0420 2.5340 107° East 551 634 35,000  Level FlightAware ADS-B
Mon 06:10:05 AM 51.0050 2.6620 115° Southeast 552 635 35,000  Level FlightAware ADS-B
Mon 06:10:40 AM 50.9660 2.7810 117° Southeast 551 634 35,000  Level FlightAware ADS-B
Mon 06:11:19 AM 50.9190 2.9240 117° Southeast 552 635 35,000  Level FlightAware ADS-B
Mon 06:11:47 AM 50.8890 3.0180 117° Southeast 552 635 35,000  Level FlightAware ADS-B
Mon 06:12:29 AM 50.8390 3.1750 117° Southeast 550 633 35,000  Level FlightAware ADS-B
Mon 06:12:57 AM 50.8060 3.2760 117° Southeast 549 632 35,000  Level FlightAware ADS-B
Mon 06:13:34 AM 50.7630 3.4080 117° Southeast 548 631 35,000  Level FlightAware ADS-B
Mon 06:13:37 AM 50.7586 3.4250 117° Southeast 492 566 35,000  Level FlightAware UK
Mon 06:14:19 AM 50.7130 3.5640 117° Southeast 546 628 35,000  Level FlightAware ADS-B
Mon 06:14:54 AM 50.6710 3.6910 118° Southeast 545 627 35,000  Level FlightAware ADS-B
Mon 06:15:27 AM 50.6340 3.8030 117° Southeast 544 626 35,000  Level FlightAware ADS-B
Mon 06:16:00 AM 50.5950 3.9230 117° Southeast 543 625 35,000  Level FlightAware ADS-B
Mon 06:16:38 AM 50.5500 4.0550 118° Southeast 544 626 35,000  Level FlightAware ADS-B
Mon 06:17:10 AM 50.5130 4.1670 118° Southeast 543 625 35,000  Level FlightAware ADS-B
Mon 06:17:13 AM 50.5082 4.1853 118° Southeast 1 1 35,000  Level FlightAware UK
Mon 06:17:44 AM 50.4723 4.2902 118° Southeast 1 1 35,000  Level FlightAware UK
Mon 06:17:50 AM 50.4680 4.3000 118° Southeast 545 627 35,000  Level FlightAware ADS-B
Mon 06:18:23 AM 50.4280 4.4150 119° Southeast 546 628 35,000  Level FlightAware ADS-B
Mon 06:18:57 AM 50.3880 4.5370 117° Southeast 546 628 35,000  Level FlightAware ADS-B
Mon 06:19:32 AM 50.3440 4.6620 119° Southeast 547 629 35,000  Level FlightAware ADS-B
Mon 06:20:07 AM 50.3030 4.7850 118° Southeast 547 629 35,000  Level FlightAware ADS-B
Mon 06:20:41 AM 50.2610 4.9030 119° Southeast 548 631 35,000  Level FlightAware ADS-B
Mon 06:21:16 AM 50.2190 5.0240 118° Southeast 548 631 35,000  Level FlightAware ADS-B
Mon 06:21:55 AM 50.1710 5.1600 119° Southeast 549 632 35,000  Level FlightAware ADS-B
Mon 06:22:29 AM 50.1310 5.2740 119° Southeast 549 632 35,000  Level FlightAware ADS-B
Mon 06:23:05 AM 50.0850 5.4060 118° Southeast 548 631 35,000  Level FlightAware ADS-B
Mon 06:23:37 AM 50.0480 5.5130 118° Southeast 548 631 35,000  Level FlightAware ADS-B
Mon 06:24:11 AM 50.0060 5.6300 119° Southeast 549 632 35,000  Level FlightAware ADS-B
Mon 06:24:47 AM 49.9610 5.7570 119° Southeast 550 633 35,000  Level FlightAware ADS-B
Mon 06:25:30 AM 49.9110 5.8950 119° Southeast 550 633 35,000  Level FlightAware ADS-B
Mon 06:26:04 AM 49.8680 6.0120 120° Southeast 551 634 35,000  Level FlightAware ADS-B
Mon 06:26:42 AM 49.8180 6.1530 119° Southeast 551 634 35,000  Level FlightAware ADS-B
Mon 06:27:12 AM 49.7810 6.2520 120° Southeast 552 635 35,000  Level FlightAware ADS-B
Mon 06:27:50 AM 49.7340 6.3790 120° Southeast 552 635 35,000  Level FlightAware ADS-B
Mon 06:28:28 AM 49.6850 6.5130 119° Southeast 553 636 35,000  Level FlightAware ADS-B
Mon 06:29:00 AM 49.6450 6.6230 119° Southeast 554 638 35,000  Level FlightAware ADS-B
Mon 06:29:38 AM 49.5970 6.7530 120° Southeast 556 640 35,000  Level FlightAware ADS-B
Mon 06:30:10 AM 49.5570 6.8600 120° Southeast 555 639 35,000  Level FlightAware ADS-B
Mon 06:30:46 AM 49.5090 6.9900 120° Southeast 556 640 35,000  Level FlightAware ADS-B
Mon 06:31:22 AM 49.4640 7.1060 121° Southeast 556 640 35,000  Level FlightAware ADS-B
Mon 06:31:52 AM 49.4250 7.2090 120° Southeast 556 640 35,000  Level FlightAware ADS-B
Mon 06:32:28 AM 49.3780 7.3350 120° Southeast 556 640 35,000  Level FlightAware ADS-B
Mon 06:33:04 AM 49.3320 7.4540 121° Southeast 555 639 35,000  Level FlightAware ADS-B
Mon 06:33:42 AM 49.2810 7.5890 120° Southeast 555 639 35,000  Level FlightAware ADS-B
Mon 06:34:14 AM 49.2390 7.6970 121° Southeast 554 638 35,000  Level FlightAware ADS-B
Mon 06:34:46 AM 49.1980 7.8020 121° Southeast 554 638 35,000  Level FlightAware ADS-B
Mon 06:35:30 AM 49.1430 7.9470 120° Southeast 551 634 35,000  Level FlightAware ADS-B
Mon 06:36:05 AM 49.0960 8.0650 121° Southeast 551 634 35,000  Level FlightAware ADS-B
Mon 06:36:40 AM 49.0550 8.1680 121° Southeast 550 633 35,000  Level FlightAware ADS-B
Mon 06:37:15 AM 49.0040 8.2990 121° Southeast 549 632 35,000  Level FlightAware ADS-B
Mon 06:37:50 AM 48.9570 8.4100 123° Southeast 544 626 35,000  Level FlightAware ADS-B
Mon 06:38:26 AM 48.8980 8.5200 129° Southeast 544 626 35,000  Level FlightAware ADS-B
Mon 06:39:02 AM 48.8350 8.6180 134° Southeast 539 620 35,000  Level FlightAware ADS-B
Mon 06:39:38 AM 48.7720 8.7130 135° Southeast 538 619 35,000  Level FlightAware ADS-B
Mon 06:40:12 AM 48.7090 8.8050 136° Southeast 538 619 35,000  Level FlightAware ADS-B
Mon 06:40:53 AM 48.6480 8.8930 136° Southeast 537 618 35,000  Level FlightAware ADS-B
Mon 06:41:28 AM 48.5720 9.0050 136° Southeast 536 617 35,000  Level FlightAware ADS-B
Mon 06:42:00 AM 48.5180 9.0830 136° Southeast 536 617 35,000  Level FlightAware ADS-B
Mon 06:42:42 AM 48.4410 9.1940 136° Southeast 536 617 35,000  Level FlightAware ADS-B
Mon 06:43:17 AM 48.3780 9.2840 136° Southeast 536 617 35,000  Level FlightAware ADS-B
Mon 06:43:59 AM 48.3050 9.3890 136° Southeast 536 617 35,000  Level FlightAware ADS-B
Mon 06:44:40 AM 48.2280 9.4990 136° Southeast 534 615 35,000  Level FlightAware ADS-B
Mon 06:45:16 AM 48.1610 9.5860 139° Southeast 531 611 35,000  Level FlightAware ADS-B
Mon 06:45:50 AM 48.0980 9.6640 140° Southeast 531 611 35,000  Level FlightAware ADS-B
Mon 06:46:22 AM 48.0370 9.7420 139° Southeast 531 611 35,000  Level FlightAware ADS-B
Mon 06:46:59 AM 47.9700 9.8280 139° Southeast 531 611 35,000  Level FlightAware ADS-B
Mon 06:47:34 AM 47.9020 9.9130 140° Southeast 530 610 35,000  Level FlightAware ADS-B
Mon 06:48:11 AM 47.8360 9.9980 139° Southeast 528 608 35,000  Level FlightAware ADS-B
Mon 06:48:42 AM 47.7730 10.0680 143° Southeast 526 605 35,000  Level FlightAware ADS-B
Mon 06:49:17 AM 47.7140 10.1340 143° Southeast 526 605 35,000  Level FlightAware ADS-B
Mon 06:49:53 AM 47.6450 10.2110 143° Southeast 521 600 35,000  Level FlightAware ADS-B
Mon 06:50:28 AM 47.5770 10.2850 144° Southeast 521 600 35,000  Level FlightAware ADS-B
Mon 06:51:02 AM 47.5050 10.3640 143° Southeast 522 601 35,000  Level FlightAware ADS-B
Mon 06:51:38 AM 47.4390 10.4370 143° Southeast 522 601 35,000  Level FlightAware ADS-B
Mon 06:52:14 AM 47.3670 10.5050 147° Southeast 524 603 35,000  Level FlightAware ADS-B
Mon 06:52:47 AM 47.2980 10.5610 151° Southeast 515 593 35,000  Level FlightAware ADS-B
Mon 06:53:23 AM 47.2210 10.6230 151° Southeast 525 604 35,000  Level FlightAware ADS-B
Mon 06:54:07 AM 47.1310 10.7090 147° Southeast 521 600 35,000  Level FlightAware ADS-B
Mon 06:54:37 AM 47.0730 10.7640 147° Southeast 522 601 35,000  Level FlightAware ADS-B
Mon 06:55:15 AM 46.9970 10.8380 146° Southeast 522 601 35,000  Level FlightAware ADS-B
Mon 06:55:48 AM 46.9170 10.9290 142° Southeast 535 616 35,000  Level FlightAware ADS-B
Mon 06:56:24 AM 46.8480 11.0120 141° Southeast 534 615 35,000  Level FlightAware ADS-B
Mon 06:57:02 AM 46.7790 11.0950 141° Southeast 535 616 35,000  Level FlightAware ADS-B
Mon 06:57:34 AM 46.7180 11.1680 141° Southeast 533 613 35,000  Level FlightAware ADS-B
Mon 06:58:07 AM 46.6540 11.2460 140° Southeast 533 613 35,000  Level FlightAware ADS-B
Mon 06:58:45 AM 46.5860 11.3360 138° Southeast 536 617 35,000  Level FlightAware ADS-B
Mon 06:59:20 AM 46.5240 11.4290 134° Southeast 537 618 35,000  Level FlightAware ADS-B
Mon 06:59:54 AM 46.4640 11.5200 134° Southeast 537 618 35,000  Level FlightAware ADS-B
Mon 07:00:27 AM 46.4080 11.6070 133° Southeast 536 617 35,000  Level FlightAware ADS-B
Mon 07:01:07 AM 46.3410 11.7080 134° Southeast 534 615 35,000  Level FlightAware ADS-B
Mon 07:01:39 AM 46.2870 11.7910 133° Southeast 534 615 35,000  Level FlightAware ADS-B
Mon 07:02:16 AM 46.2250 11.8870 133° Southeast 533 613 35,000  Level FlightAware ADS-B
Mon 07:02:44 AM 46.1780 11.9570 134° Southeast 533 613 35,000  Level FlightAware ADS-B
Mon 07:03:20 AM 46.1170 12.0500 133° Southeast 532 612 35,000  Level FlightAware ADS-B
Mon 07:03:57 AM 46.0530 12.1480 133° Southeast 532 612 35,000  Level FlightAware ADS-B
Mon 07:04:30 AM 45.9990 12.2340 132° Southeast 533 613 35,000  Level FlightAware ADS-B
Mon 07:05:05 AM 45.9420 12.3230 133° Southeast 533 613 35,000  Level FlightAware ADS-B
Mon 07:05:41 AM 45.8830 12.4170 132° Southeast 526 605 35,000  Level FlightAware ADS-B
Mon 07:06:11 AM 45.8320 12.4950 133° Southeast 526 605 35,000  Level FlightAware ADS-B
Mon 07:06:47 AM 45.7740 12.5850 133° Southeast 526 605 35,000  Level FlightAware ADS-B
Mon 07:07:26 AM 45.7100 12.6830 133° Southeast 527 606 35,000  Level FlightAware ADS-B
Mon 07:08:01 AM 45.6470 12.7810 133° Southeast 528 608 35,000  Level FlightAware ADS-B
Mon 07:08:36 AM 45.5900 12.8690 133° Southeast 528 608 35,000  Level FlightAware ADS-B
Mon 07:09:11 AM 45.5300 12.9610 133° Southeast 527 606 35,000  Level FlightAware ADS-B
Mon 07:09:41 AM 45.4810 13.0360 133° Southeast 527 606 35,000  Level FlightAware ADS-B
Mon 07:10:17 AM 45.4210 13.1280 133° Southeast 527 606 35,000  Level FlightAware ADS-B
Mon 07:10:56 AM 45.3540 13.2290 133° Southeast 526 605 35,000  Level FlightAware ADS-B
Mon 07:11:27 AM 45.3030 13.3060 133° Southeast 525 604 35,000  Level FlightAware ADS-B
Mon 07:12:03 AM 45.2450 13.3920 134° Southeast 525 604 35,000  Level FlightAware ADS-B
Mon 07:12:37 AM 45.1860 13.4800 134° Southeast 524 603 35,000  Level FlightAware ADS-B
Mon 07:13:12 AM 45.1300 13.5710 131° Southeast 532 612 35,000  Level FlightAware ADS-B
Mon 07:13:46 AM 45.0780 13.6720 126° Southeast 532 612 35,000  Level FlightAware ADS-B
Mon 07:14:21 AM 45.0310 13.7660 125° Southeast 526 605 35,000  Level FlightAware ADS-B
Mon 07:14:56 AM 44.9820 13.8610 126° Southeast 525 604 35,000  Level FlightAware ADS-B
Mon 07:15:37 AM 44.9170 13.9820 127° Southeast 523 602 35,000  Level FlightAware ADS-B
Mon 07:16:07 AM 44.8750 14.0630 126° Southeast 527 606 35,000  Level FlightAware ADS-B
Mon 07:16:44 AM 44.8250 14.1600 126° Southeast 526 605 35,000  Level FlightAware ADS-B
Mon 07:17:26 AM 44.7630 14.2820 126° Southeast 526 605 35,000  Level FlightAware ADS-B
Mon 07:18:07 AM 44.7070 14.3890 126° Southeast 525 604 35,000  Level FlightAware ADS-B
Mon 07:18:42 AM 44.6580 14.4830 126° Southeast 525 604 35,000  Level FlightAware ADS-B
Mon 07:19:27 AM 44.5880 14.6180 126° Southeast 525 604 35,000  Level FlightAware ADS-B
Mon 07:20:02 AM 44.5390 14.7110 126° Southeast 524 603 35,000  Level FlightAware ADS-B
Mon 07:20:38 AM 44.4910 14.8040 126° Southeast 525 604 35,000  Level FlightAware ADS-B
Mon 07:21:24 AM 44.4230 14.9320 127° Southeast 521 600 35,000  Level FlightAware ADS-B
Mon 07:21:58 AM 44.3710 15.0310 126° Southeast 520 598 35,000  Level FlightAware ADS-B
Mon 07:22:34 AM 44.3230 15.1210 127° Southeast 520 598 35,000  Level FlightAware ADS-B
Mon 07:23:09 AM 44.2690 15.2240 126° Southeast 519 597 35,000  Level FlightAware ADS-B
Mon 07:23:44 AM 44.2200 15.3160 127° Southeast 518 596 35,000  Level FlightAware ADS-B
Mon 07:24:19 AM 44.1690 15.4100 127° Southeast 519 597 35,000  Level FlightAware ADS-B
Mon 07:24:54 AM 44.1160 15.5070 127° Southeast 518 596 35,000  Level FlightAware ADS-B
Mon 07:25:29 AM 44.0670 15.5990 127° Southeast 517 595 35,000  Level FlightAware ADS-B
Mon 07:26:04 AM 44.0170 15.6930 126° Southeast 518 596 35,000  Level FlightAware ADS-B
Mon 07:26:39 AM 43.9690 15.7810 127° Southeast 517 595 35,000  Level FlightAware ADS-B
Mon 07:27:14 AM 43.9150 15.8800 127° Southeast 517 595 35,000  Level FlightAware ADS-B
Mon 07:27:45 AM 43.8690 15.9620 128° Southeast 517 595 35,000  Level FlightAware ADS-B
Mon 07:28:29 AM 43.8050 16.0790 127° Southeast 516 594 35,000  Level FlightAware ADS-B
Mon 07:29:12 AM 43.7410 16.1960 127° Southeast 521 600 35,000  Level FlightAware ADS-B
Mon 07:29:49 AM 43.6880 16.2940 127° Southeast 515 593 35,000  Level FlightAware ADS-B
Mon 07:30:24 AM 43.6400 16.3810 127° Southeast 514 592 35,000  Level FlightAware ADS-B
Mon 07:31:04 AM 43.5800 16.4880 128° Southeast 514 592 35,000  Level FlightAware ADS-B
Mon 07:31:40 AM 43.5290 16.5780 128° Southeast 513 590 35,000  Level FlightAware ADS-B
Mon 07:32:15 AM 43.4770 16.6720 127° Southeast 512 589 35,000  Level FlightAware ADS-B
Mon 07:32:49 AM 43.4250 16.7650 128° Southeast 512 589 35,000  Level FlightAware ADS-B
Mon 07:33:25 AM 43.3740 16.8560 128° Southeast 513 590 35,000  Level FlightAware ADS-B
Mon 07:34:00 AM 43.3230 16.9480 127° Southeast 513 590 35,000  Level FlightAware ADS-B
Mon 07:34:34 AM 43.2740 17.0330 128° Southeast 514 592 35,000  Level FlightAware ADS-B
Mon 07:35:10 AM 43.2240 17.1210 128° Southeast 514 592 35,000  Level FlightAware ADS-B
Mon 07:35:40 AM 43.1760 17.2070 127° Southeast 518 596 35,000  Level FlightAware ADS-B
Mon 07:36:21 AM 43.1140 17.3130 129° Southeast 518 596 35,000  Level FlightAware ADS-B
Mon 07:36:55 AM 43.0640 17.4010 128° Southeast 519 597 35,000  Level FlightAware ADS-B
Mon 07:37:26 AM 43.0180 17.4810 128° Southeast 519 597 35,000  Level FlightAware ADS-B
Mon 07:38:05 AM 42.9580 17.5840 128° Southeast 519 597 35,000  Level FlightAware ADS-B
Mon 07:38:45 AM 42.9010 17.6840 128° Southeast 520 598 35,000  Level FlightAware ADS-B
Mon 07:39:20 AM 42.8460 17.7770 129° Southeast 520 598 35,000  Level FlightAware ADS-B
Mon 07:39:56 AM 42.7960 17.8640 128° Southeast 520 598 35,000  Level FlightAware ADS-B
Mon 07:40:30 AM 42.7450 17.9510 129° Southeast 521 600 35,000  Level FlightAware ADS-B
Mon 07:41:08 AM 42.6860 18.0510 129° Southeast 520 598 35,000  Level FlightAware ADS-B
Mon 07:41:42 AM 42.6350 18.1400 128° Southeast 519 597 35,000  Level FlightAware ADS-B
Mon 07:42:18 AM 42.5800 18.2340 128° Southeast 519 597 35,000  Level FlightAware ADS-B
Mon 07:42:54 AM 42.5230 18.3160 133° Southeast 520 598 35,000  Level FlightAware ADS-B
Mon 07:43:28 AM 42.4630 18.4000 134° Southeast 520 598 35,000  Level FlightAware ADS-B
Mon 07:44:04 AM 42.4040 18.4800 135° Southeast 521 600 35,000  Level FlightAware ADS-B
Mon 07:44:34 AM 42.3510 18.5510 135° Southeast 521 600 35,000  Level FlightAware ADS-B
Mon 07:45:11 AM 42.2890 18.6340 135° Southeast 520 598 35,000  Level FlightAware ADS-B
Mon 07:45:47 AM 42.2270 18.7180 135° Southeast 520 598 35,000  Level FlightAware ADS-B
Mon 07:46:19 AM 42.1740 18.7870 136° Southeast 520 598 35,000  Level FlightAware ADS-B
Mon 07:46:59 AM 42.1030 18.8820 135° Southeast 519 597 35,000  Level FlightAware ADS-B
Mon 07:47:47 AM 42.0220 18.9880 136° Southeast 517 595 35,000  Level FlightAware ADS-B
Mon 07:48:23 AM 41.9600 19.0700 135° Southeast 517 595 35,000  Level FlightAware ADS-B
Mon 07:48:55 AM 41.9040 19.1440 135° Southeast 517 595 35,000  Level FlightAware ADS-B
Mon 07:49:31 AM 41.8440 19.2240 135° Southeast 516 594 35,000  Level FlightAware ADS-B
Mon 07:50:03 AM 41.7890 19.2930 137° Southeast 517 595 35,000  Level FlightAware ADS-B
Mon 07:50:44 AM 41.7160 19.3800 138° Southeast 516 594 35,000  Level FlightAware ADS-B
Mon 07:51:17 AM 41.6550 19.4510 139° Southeast 516 594 35,000  Level FlightAware ADS-B
Mon 07:51:53 AM 41.5900 19.5230 140° Southeast 514 592 35,000  Level FlightAware ADS-B
Mon 07:52:29 AM 41.5250 19.5960 140° Southeast 513 590 35,000  Level FlightAware ADS-B
Mon 07:53:01 AM 41.4660 19.6610 140° Southeast 513 590 35,000  Level FlightAware ADS-B
Mon 07:53:37 AM 41.4020 19.7360 139° Southeast 513 590 35,000  Level FlightAware ADS-B
Mon 07:54:09 AM 41.3470 19.8100 135° Southeast 513 590 35,000  Level FlightAware ADS-B
Mon 07:54:47 AM 41.2860 19.8930 134° Southeast 513 590 35,000  Level FlightAware ADS-B
Mon 07:55:19 AM 41.2310 19.9670 135° Southeast 512 589 35,000 83 Level FlightAware ADS-B
Mon 07:55:59 AM 41.1710 20.0480 135° Southeast 511 588 35,100 583 Climbing FlightAware ADS-B
Mon 07:56:31 AM 41.1140 20.1240 135° Southeast 515 593 35,700 1,147 Climbing FlightAware ADS-B
Mon 07:57:07 AM 41.0540 20.2020 136° Southeast 516 594 36,400 1,130 Climbing FlightAware ADS-B
Mon 07:57:40 AM 40.9960 20.2810 134° Southeast 516 594 37,000 514 Climbing FlightAware ADS-B
Mon 07:58:17 AM 40.9360 20.3590 136° Southeast 516 594 37,000  Level FlightAware ADS-B
Mon 07:58:52 AM 40.8750 20.4390 135° Southeast 515 593 37,000  Level FlightAware ADS-B
Mon 07:59:27 AM 40.8160 20.5170 135° Southeast 514 592 37,000  Level FlightAware ADS-B
Mon 08:00:00 AM 40.7620 20.5900 134° Southeast 512 589 37,000  Level FlightAware ADS-B
Mon 08:00:38 AM 40.6990 20.6710 136° Southeast 510 587 37,000  Level FlightAware ADS-B
Mon 08:01:12 AM 40.6410 20.7470 135° Southeast 509 586 37,000  Level FlightAware ADS-B
Mon 08:01:46 AM 40.5810 20.8260 135° Southeast 508 585 37,000  Level FlightAware ADS-B
Mon 08:02:22 AM 40.5220 20.9020 136° Southeast 508 585 37,000  Level FlightAware ADS-B
Mon 08:02:58 AM 40.4590 20.9800 137° Southeast 508 585 37,000  Level FlightAware ADS-B
Mon 08:03:32 AM 40.4000 21.0500 138° Southeast 508 585 37,000  Level FlightAware ADS-B
Mon 08:04:08 AM 40.3390 21.1270 136° Southeast 509 586 37,000  Level FlightAware ADS-B
Mon 08:04:43 AM 40.2820 21.2030 135° Southeast 510 587 37,000  Level FlightAware ADS-B
Mon 08:05:16 AM 40.2310 21.2790 131° Southeast 511 588 37,000  Level FlightAware ADS-B
Mon 08:05:50 AM 40.1760 21.3570 133° Southeast 512 589 37,000  Level FlightAware ADS-B
Mon 08:06:28 AM 40.1170 21.4450 131° Southeast 512 589 37,000  Level FlightAware ADS-B
Mon 08:07:04 AM 40.0600 21.5280 132° Southeast 513 590 37,000  Level FlightAware ADS-B
Mon 08:07:36 AM 40.0090 21.6020 132° Southeast 514 592 37,000  Level FlightAware ADS-B
Mon 08:08:12 AM 39.9520 21.6850 132° Southeast 514 592 37,000  Level FlightAware ADS-B
Mon 08:08:48 AM 39.8930 21.7710 132° Southeast 515 593 37,000  Level FlightAware ADS-B
Mon 08:09:20 AM 39.8420 21.8440 132° Southeast 515 593 37,000  Level FlightAware ADS-B
Mon 08:09:56 AM 39.7860 21.9250 132° Southeast 516 594 37,000  Level FlightAware ADS-B
Mon 08:10:34 AM 39.7240 22.0140 132° Southeast 516 594 37,000  Level FlightAware ADS-B
Mon 08:11:06 AM 39.6720 22.0880 132° Southeast 516 594 37,000  Level FlightAware ADS-B
Mon 08:11:40 AM 39.6220 22.1590 132° Southeast 516 594 37,000  Level FlightAware ADS-B
Mon 08:12:18 AM 39.5600 22.2480 132° Southeast 515 593 37,000  Level FlightAware ADS-B
Mon 08:12:54 AM 39.4990 22.3340 133° Southeast 513 590 37,000  Level FlightAware ADS-B
Mon 08:13:25 AM 39.4510 22.4020 132° Southeast 513 590 37,000  Level FlightAware ADS-B
Mon 08:14:02 AM 39.3900 22.4890 132° Southeast 514 592 37,000  Level FlightAware ADS-B
Mon 08:14:38 AM 39.3320 22.5680 133° Southeast 513 590 37,000  Level FlightAware ADS-B
Mon 08:15:14 AM 39.2740 22.6510 132° Southeast 514 592 37,000  Level FlightAware ADS-B
Mon 08:15:48 AM 39.2190 22.7280 133° Southeast 515 593 37,000  Level FlightAware ADS-B
Mon 08:16:20 AM 39.1710 22.7960 132° Southeast 514 592 37,000  Level FlightAware ADS-B
Mon 08:16:56 AM 39.1090 22.8810 133° Southeast 513 590 37,000  Level FlightAware ADS-B
Mon 08:17:33 AM 39.0510 22.9620 133° Southeast 514 592 37,000  Level FlightAware ADS-B
Mon 08:18:05 AM 39.0000 23.0340 132° Southeast 515 593 37,000  Level FlightAware ADS-B
Mon 08:18:41 AM 38.9400 23.1140 134° Southeast 515 593 37,000  Level FlightAware ADS-B
Mon 08:19:19 AM 38.8780 23.1990 133° Southeast 514 592 37,000  Level FlightAware ADS-B
Mon 08:19:51 AM 38.8250 23.2730 133° Southeast 515 593 37,000  Level FlightAware ADS-B
Mon 08:20:28 AM 38.7690 23.3510 133° Southeast 515 593 37,000  Level FlightAware ADS-B
Mon 08:21:03 AM 38.7080 23.4340 133° Southeast 516 594 37,000  Level FlightAware ADS-B
Mon 08:21:37 AM 38.6530 23.5090 133° Southeast 516 594 37,000  Level FlightAware ADS-B
Mon 08:22:11 AM 38.5980 23.5830 134° Southeast 517 595 37,000  Level FlightAware ADS-B
Mon 08:22:47 AM 38.5380 23.6650 133° Southeast 517 595 37,000  Level FlightAware ADS-B
Mon 08:23:23 AM 38.4800 23.7430 134° Southeast 517 595 37,000  Level FlightAware ADS-B
Mon 08:23:59 AM 38.4260 23.8160 133° Southeast 517 595 37,000  Level FlightAware ADS-B
Mon 08:24:35 AM 38.3690 23.8940 133° Southeast 519 597 37,000  Level FlightAware ADS-B
Mon 08:25:13 AM 38.3050 23.9780 134° Southeast 519 597 37,000  Level FlightAware ADS-B
Mon 08:25:47 AM 38.2470 24.0580 133° Southeast 519 597 37,000  Level FlightAware ADS-B
Mon 08:26:23 AM 38.1860 24.1380 134° Southeast 520 598 37,000  Level FlightAware ADS-B
Mon 08:26:55 AM 38.1410 24.2000 133° Southeast 515 593 37,000  Level FlightAware ADS-B
Mon 08:27:34 AM 38.0720 24.2910 134° Southeast 516 594 37,000  Level FlightAware ADS-B
Mon 08:28:04 AM 38.0210 24.3570 134° Southeast 517 595 37,000  Level FlightAware ADS-B
Mon 08:28:43 AM 37.9490 24.4550 133° Southeast 522 601 37,000  Level FlightAware ADS-B
Mon 08:29:19 AM 37.8890 24.5330 134° Southeast 522 601 37,000  Level FlightAware ADS-B
Mon 08:29:55 AM 37.8290 24.6120 134° Southeast 521 600 37,000  Level FlightAware ADS-B
Mon 08:30:27 AM 37.7760 24.6820 134° Southeast 522 601 37,000  Level FlightAware ADS-B
Mon 08:31:03 AM 37.7170 24.7590 134° Southeast 521 600 37,000  Level FlightAware ADS-B
Mon 08:31:39 AM 37.6540 24.8420 134° Southeast 522 601 37,000  Level FlightAware ADS-B
Mon 08:32:11 AM 37.6020 24.9100 134° Southeast 524 603 37,000  Level FlightAware ADS-B
Mon 08:32:49 AM 37.5370 24.9940 134° Southeast 524 603 37,000  Level FlightAware ADS-B
Mon 08:33:25 AM 37.4760 25.0730 134° Southeast 524 603 37,000  Level FlightAware ADS-B
Mon 08:33:57 AM 37.4210 25.1450 134° Southeast 526 605 37,000  Level FlightAware ADS-B
Mon 08:34:31 AM 37.3630 25.2190 135° Southeast 526 605 37,000  Level FlightAware ADS-B
Mon 08:35:11 AM 37.2960 25.3050 134° Southeast 526 605 37,000  Level FlightAware ADS-B
Mon 08:35:43 AM 37.2420 25.3750 134° Southeast 526 605 37,000  Level FlightAware ADS-B
Mon 08:36:21 AM 37.1770 25.4570 135° Southeast 525 604 37,000  Level FlightAware ADS-B
Mon 08:36:53 AM 37.1230 25.5270 134° Southeast 525 604 37,000  Level FlightAware ADS-B
Mon 08:37:29 AM 37.0620 25.6050 134° Southeast 525 604 37,000  Level FlightAware ADS-B
Mon 08:38:03 AM 37.0030 25.6790 135° Southeast 525 604 37,000  Level FlightAware ADS-B
Mon 08:38:41 AM 36.9390 25.7610 134° Southeast 525 604 37,000  Level FlightAware ADS-B
Mon 08:39:13 AM 36.8840 25.8310 134° Southeast 526 605 37,000  Level FlightAware ADS-B
Mon 08:39:49 AM 36.8210 25.9110 135° Southeast 526 605 37,000  Level FlightAware ADS-B
Mon 08:40:25 AM 36.7610 25.9860 135° Southeast 525 604 37,000  Level FlightAware ADS-B
Mon 08:40:57 AM 36.7050 26.0570 135° Southeast 525 604 37,000  Level FlightAware ADS-B
Mon 08:41:33 AM 36.6430 26.1340 135° Southeast 524 603 37,000  Level FlightAware ADS-B
Mon 08:42:09 AM 36.5840 26.2110 134° Southeast 528 608 37,000  Level FlightAware ADS-B
Mon 08:42:45 AM 36.5360 26.3030 123° Southeast 538 619 37,000  Level FlightAware ADS-B
Mon 08:43:16 AM 36.5020 26.3890 116° Southeast 539 620 37,000  Level FlightAware ADS-B
Mon 08:43:53 AM 36.4610 26.4920 116° Southeast 538 619 37,000  Level FlightAware ADS-B
Mon 08:44:25 AM 36.4250 26.5800 117° Southeast 538 619 37,000  Level FlightAware ADS-B
Mon 08:45:05 AM 36.3800 26.6940 116° Southeast 538 619 37,000  Level FlightAware ADS-B
Mon 08:45:29 AM 36.3530 26.7600 117° Southeast 537 618 37,000  Level FlightAware ADS-B
Mon 08:46:05 AM 36.3140 26.8560 117° Southeast 537 618 37,000  Level FlightAware ADS-B
Mon 08:46:41 AM 36.2730 26.9570 117° Southeast 536 617 37,000  Level FlightAware ADS-B
Mon 08:47:15 AM 36.2420 27.0340 117° Southeast 537 618 37,000  Level FlightAware ADS-B
Mon 08:47:49 AM 36.1990 27.1350 118° Southeast 535 616 37,000  Level FlightAware ADS-B
Mon 08:48:24 AM 36.1570 27.2360 117° Southeast 535 616 37,000  Level FlightAware ADS-B
Mon 08:48:59 AM 36.1210 27.3260 116° Southeast 535 616 37,000  Level FlightAware ADS-B
Mon 08:49:56 AM 36.0640 27.4620 117° Southeast 534 615 37,000  Level FlightAware ADS-B
Mon 08:50:32 AM 36.0300 27.5460 117° Southeast 534 615 37,000  Level FlightAware ADS-B
Mon 08:51:08 AM 35.9950 27.6290 118° Southeast 534 615 37,000  Level FlightAware ADS-B
Mon 08:51:45 AM 35.9600 27.7150 117° Southeast 534 615 37,000  Level FlightAware ADS-B
Mon 08:52:21 AM 35.9260 27.7980 117° Southeast 534 615 37,000  Level FlightAware ADS-B
Mon 08:53:07 AM 35.8820 27.9040 117° Southeast 534 615 37,000 1,379 Level FlightAware ADS-B
Mon 08:53:48 AM 35.7460 28.0760 134° Southeast 528 608 39,000 1,446 Climbing FlightAware ADS-B
Mon 08:54:30 AM 35.6840 28.1800 126° Southeast 527 606 39,000  Level FlightAware ADS-B
Mon 08:55:04 AM 35.6350 28.2630 126° Southeast 525 604 39,000  Level FlightAware ADS-B
Mon 08:55:40 AM 35.5840 28.3500 126° Southeast 525 604 39,000  Level FlightAware ADS-B
Mon 08:56:14 AM 35.5360 28.4320 126° Southeast 524 603 39,000  Level FlightAware ADS-B
Mon 08:56:50 AM 35.4830 28.5210 126° Southeast 525 604 39,000  Level FlightAware ADS-B
Mon 08:57:28 AM 35.4290 28.6100 127° Southeast 525 604 39,000  Level FlightAware ADS-B
Mon 08:58:00 AM 35.3820 28.6890 126° Southeast 526 605 39,000  Level FlightAware ADS-B
Mon 08:58:38 AM 35.3280 28.7780 127° Southeast 526 605 39,000  Level FlightAware ADS-B
Mon 08:59:07 AM 35.2910 28.8410 126° Southeast 526 605 39,000  Level FlightAware ADS-B
Mon 08:59:41 AM 35.2410 28.9250 126° Southeast 523 602 39,000  Level FlightAware ADS-B
Mon 09:00:29 AM 35.1840 29.0240 125° Southeast 523 602 39,000  Level FlightAware ADS-B
Mon 09:01:05 AM 35.1420 29.0980 125° Southeast 523 602 39,000  Level FlightAware ADS-B
Mon 09:01:22 AM 35.0920 29.1700 130° Southeast 797 917 39,000  Level FlightAware ADS-B
Mon 09:02:11 AM 35.0300 29.2750 126° Southeast 523 602 39,000  Level FlightAware ADS-B
Mon 09:02:59 AM 34.9590 29.3930 126° Southeast 522 601 39,000  Level FlightAware ADS-B
Mon 09:03:39 AM 34.8950 29.4940 128° Southeast 521 600 39,000  Level FlightAware ADS-B
Mon 09:04:09 AM 34.8500 29.5680 127° Southeast 522 601 39,000  Level FlightAware ADS-B
Mon 09:04:46 AM 34.7980 29.6510 127° Southeast 521 600 39,000  Level FlightAware ADS-B
Mon 09:05:23 AM 34.7450 29.7390 126° Southeast 523 602 39,000  Level FlightAware ADS-B
Mon 09:05:56 AM 34.6930 29.8210 128° Southeast 522 601 39,000  Level FlightAware ADS-B
Mon 09:06:53 AM 34.6200 29.9420 126° Southeast 522 601 39,000  Level FlightAware ADS-B
Mon 09:07:29 AM 34.5760 30.0150 126° Southeast 522 601 39,000  Level FlightAware ADS-B
Mon 09:07:57 AM 34.5320 30.1070 120° Southeast 655 754 39,000  Level FlightAware ADS-B
Mon 09:08:36 AM 34.4800 30.2180 120° Southeast 530 610 39,000  Level FlightAware ADS-B
Mon 09:09:12 AM 34.4380 30.3060 120° Southeast 526 605 39,000  Level FlightAware ADS-B
Mon 09:09:47 AM 34.3920 30.4000 121° Southeast 524 603 39,000  Level FlightAware ADS-B
Mon 09:10:23 AM 34.3470 30.4940 120° Southeast 523 602 39,000  Level FlightAware ADS-B
Mon 09:10:54 AM 34.3100 30.5700 120° Southeast 521 600 39,000  Level FlightAware ADS-B
Mon 09:11:30 AM 34.2660 30.6610 120° Southeast 520 598 39,000  Level FlightAware ADS-B
Mon 09:12:04 AM 34.2290 30.7370 120° Southeast 520 598 39,000  Level FlightAware ADS-B
Mon 09:12:41 AM 34.1770 30.8430 121° Southeast 519 597 39,000  Level FlightAware ADS-B
Mon 09:13:16 AM 34.1350 30.9280 121° Southeast 518 596 39,000  Level FlightAware ADS-B
Mon 09:13:50 AM 34.0910 31.0160 121° Southeast 517 595 39,000  Level FlightAware ADS-B
Mon 09:14:25 AM 34.0490 31.1030 120° Southeast 516 594 39,000  Level FlightAware ADS-B
Mon 09:15:01 AM 34.0060 31.1910 120° Southeast 516 594 39,000  Level FlightAware ADS-B
Mon 09:15:36 AM 33.9630 31.2780 121° Southeast 516 594 39,000  Level FlightAware ADS-B
Mon 09:16:11 AM 33.9190 31.3680 120° Southeast 515 593 39,000  Level FlightAware ADS-B
Mon 09:16:47 AM 33.8760 31.4550 121° Southeast 515 593 39,000  Level FlightAware ADS-B
Mon 09:17:22 AM 33.8300 31.5470 121° Southeast 515 593 39,000  Level FlightAware ADS-B
Mon 09:17:53 AM 33.7930 31.6210 121° Southeast 515 593 39,000  Level FlightAware ADS-B
Mon 09:18:29 AM 33.7500 31.7100 120° Southeast 515 593 39,000  Level FlightAware ADS-B
Mon 09:19:08 AM 33.7000 31.8070 122° Southeast 515 593 39,000  Level FlightAware ADS-B
Mon 09:19:44 AM 33.6570 31.8930 121° Southeast 516 594 39,000  Level FlightAware ADS-B
Mon 09:20:19 AM 33.6140 31.9800 121° Southeast 515 593 39,000  Level FlightAware ADS-B
Mon 09:20:49 AM 33.5780 32.0510 121° Southeast 515 593 39,000  Level FlightAware ADS-B
Mon 09:21:24 AM 33.5310 32.1420 122° Southeast 515 593 39,000  Level FlightAware ADS-B
Mon 09:22:09 AM 33.4750 32.2530 121° Southeast 515 593 39,000  Level FlightAware ADS-B
Mon 09:22:45 AM 33.4310 32.3380 122° Southeast 515 593 39,000 -583 Level FlightAware ADS-B
Mon 09:23:21 AM 33.3910 32.4170 121° Southeast 521 600 38,300 -1,271 Descending FlightAware ADS-B
Mon 09:24:10 AM 33.3280 32.5410 121° Southeast 525 604 37,200 -1,800 Descending FlightAware ADS-B
Mon 09:24:41 AM 33.2860 32.6240 121° Southeast 514 592 35,900 -2,418 Descending FlightAware ADS-B
Mon 09:25:17 AM 33.2410 32.7120 121° Southeast 509 586 34,500 -2,197 Descending FlightAware ADS-B
Mon 09:25:52 AM 33.2030 32.7840 122° Southeast 509 586 33,300 -2,400 Descending FlightAware ADS-B
Mon 09:26:27 AM 33.1540 32.8810 121° Southeast 500 575 31,700 -2,382 Descending FlightAware ADS-B
Mon 09:27:00 AM 33.1170 32.9540 121° Southeast 496 571 30,600 -2,026 Descending FlightAware ADS-B
Mon 09:27:44 AM 33.0650 33.0560 121° Southeast 488 562 29,100 -1,231 Descending FlightAware ADS-B
Mon 09:28:18 AM 33.0300 33.1250 121° Southeast 474 545 29,000 -162 Descending FlightAware ADS-B
Mon 09:28:58 AM 32.9860 33.2160 120° Southeast 475 547 28,900 -700 Descending FlightAware ADS-B
Mon 09:29:18 AM 32.9720 33.2780 105° East 470 541 28,300 -1,647 Descending FlightAware ADS-B
Mon 09:29:49 AM 32.9690 33.3570 93° East 460 529 27,500 -1,775 Descending FlightAware ADS-B
Mon 09:30:29 AM 32.9680 33.4570 91° East 449 517 26,200 -1,917 Descending FlightAware ADS-B
Mon 09:31:01 AM 32.9670 33.5380 91° East 440 506 25,200 -1,969 Descending FlightAware ADS-B
Mon 09:31:33 AM 32.9670 33.6100 90° East 432 497 24,100 -2,113 Descending FlightAware ADS-B
Mon 09:32:12 AM 32.9650 33.7040 91° East 423 487 22,700 -2,250 Descending FlightAware ADS-B
Mon 09:32:45 AM 32.9630 33.7820 92° East 412 474 21,400 -2,197 Descending FlightAware ADS-B
Mon 09:33:23 AM 32.9610 33.8670 92° East 403 464 20,100 -2,189 Descending FlightAware ADS-B
Mon 09:33:59 AM 32.9590 33.9450 92° East 395 455 18,700 -2,118 Descending FlightAware ADS-B
Mon 09:34:31 AM 32.9570 34.0120 92° East 386 444 17,700 -2,000 Descending FlightAware ADS-B
Mon 09:34:47 AM 32.9530 34.0450 98° East 379 436 17,100 -2,167 Descending FlightAware ADS-B
Mon 09:35:07 AM 32.9390 34.0830 114° Southeast 370 426 16,400 -2,057 Descending FlightAware ADS-B
Mon 09:35:22 AM 32.9220 34.1060 131° Southeast 362 417 15,900 -2,143 Descending FlightAware ADS-B
Mon 09:35:35 AM 32.9030 34.1210 146° Southeast 354 407 15,400 -1,959 Descending FlightAware ADS-B
Mon 09:36:11 AM 32.8470 34.1370 167° South 339 390 14,300 -1,662 Descending FlightAware ADS-B
Mon 09:36:40 AM 32.8040 34.1460 170° South 334 384 13,600 -1,059 Descending FlightAware ADS-B
Mon 09:37:19 AM 32.7460 34.1580 170° South 313 360 13,100 -973 Descending FlightAware ADS-B
Mon 09:37:54 AM 32.6990 34.1680 170° South 303 349 12,400 -771 Descending FlightAware ADS-B
Mon 09:38:29 AM 32.6490 34.1780 170° South 300 345 12,200 -343 Descending FlightAware ADS-B
Mon 09:39:04 AM 32.6020 34.1870 171° South 298 343 12,000 -448 Descending FlightAware ADS-B
Mon 09:39:36 AM 32.5580 34.1970 169° South 295 339 11,700 -985 Descending FlightAware ADS-B
Mon 09:40:11 AM 32.5100 34.2060 171° South 294 338 10,900 -986 Descending FlightAware ADS-B
Mon 09:40:49 AM 32.4600 34.2150 171° South 296 341 10,500 -618 Descending FlightAware ADS-B
Mon 09:41:19 AM 32.4180 34.2230 171° South 285 328 10,200 -632 Descending FlightAware ADS-B
Mon 09:41:46 AM 32.3830 34.2300 170° South 282 325 9,900 -511 Descending FlightAware ADS-B
Mon 09:42:06 AM 32.3580 34.2340 172° South 279 321 9,800 -300 Descending FlightAware ADS-B
Mon 09:42:26 AM 32.3390 34.2390 167° South 282 325 9,700 -343 Descending FlightAware ADS-B
Mon 09:42:41 AM 32.3180 34.2550 147° Southeast 280 322 9,600 -667 Descending FlightAware ADS-B
Mon 09:43:02 AM 32.3040 34.2760 128° Southeast 277 319 9,300 -800 Descending FlightAware ADS-B
Mon 09:43:11 AM 32.2980 34.2900 117° Southeast 282 325 9,200 -1,059 Descending FlightAware ADS-B
Mon 09:43:36 AM 32.2830 34.3270 116° Southeast 287 330 8,700 -1,021 Descending FlightAware ADS-B
Mon 09:43:58 AM 32.2730 34.3540 114° Southeast 283 326 8,400 -982 Descending FlightAware ADS-B
Mon 09:44:31 AM 32.2530 34.4050 115° Southeast 271 312 7,800 -1,132 Descending FlightAware ADS-B
Mon 09:44:51 AM 32.2420 34.4310 117° Southeast 266 306 7,400 -933 Descending FlightAware ADS-B
Mon 09:45:16 AM 32.2290 34.4620 116° Southeast 264 304 7,100 -441 Descending FlightAware ADS-B
Mon 09:45:59 AM 32.2050 34.5100 121° Southeast 267 307 6,900 -857 Descending FlightAware ADS-B
Mon 09:46:26 AM 32.1820 34.5520 123° Southeast 274 315 6,100 -1,404 Descending FlightAware ADS-B
Mon 09:46:46 AM 32.1700 34.5750 122° Southeast 266 306 5,800 -1,024 Descending FlightAware ADS-B
Mon 09:47:07 AM 32.1570 34.6010 121° Southeast 263 303 5,400 -1,050 Descending FlightAware ADS-B
Mon 09:47:26 AM 32.1430 34.6270 122° Southeast 266 306 5,100 -462 Descending FlightAware ADS-B
Mon 09:47:46 AM 32.1310 34.6490 123° Southeast 244 281 5,100 133 Level FlightAware ADS-B
Mon 09:48:11 AM 32.1160 34.6760 123° Southeast 236 272 5,200 133 Climbing FlightAware ADS-B
Mon 09:48:31 AM 32.1060 34.6940 123° Southeast 236 272 5,200  Level FlightAware ADS-B
Mon 09:48:51 AM 32.0920 34.7200 122° Southeast 237 273 5,200  Level FlightAware ADS-B
Mon 09:49:11 AM 32.0830 34.7360 124° Southeast 237 273 5,200 -146 Level FlightAware ADS-B
Mon 09:49:32 AM 32.0680 34.7630 123° Southeast 238 274 5,100  Descending FlightAware ADS-B
Mon 09:49:46 AM 32.0600 34.7750 128° Southeast 231 266 5,200 -353 Climbing FlightAware ADS-B
Mon 09:50:06 AM 32.0430 34.7950 135° Southeast 213 245 4,900 -429 Descending FlightAware ADS-B
Mon 09:50:42 AM 32.0230 34.8180 136° Southeast 212 244 4,800 -185 Descending FlightAware ADS-B
Mon 09:51:11 AM 32.0000 34.8430 137° Southeast 211 243 4,700 -375 Descending FlightAware ADS-B
Mon 09:51:46 AM 31.9770 34.8700 135° Southeast 211 243 4,400 -1,745 Descending FlightAware ADS-B
Mon 09:52:06 AM 31.9910 34.8530 314° West 214 246 3,100 -2,550 Descending FlightAware ADS-B
Mon 09:52:26 AM 31.9790 34.9240 101° East 201 231 2,700 -1,067 Descending FlightAware ADS-B
Mon 09:52:51 AM 31.9850 34.9480 74° East 185 213 2,300 -968 Descending FlightAware ADS-B
Mon 09:52:57 AM 31.9870 34.9510 52° Northeast 183 211 2,200 -800 Descending FlightAware ADS-B
Mon 09:53:06 AM 31.9920 34.9590 54° Northeast 180 207 2,100 -857 Descending FlightAware ADS-B
Mon 09:53:11 AM 31.9950 34.9610 29° Northeast 177 204 2,000 -1,200 Descending FlightAware ADS-B
Mon 09:53:31 AM 32.0120 34.9620 North 159 183 1,600 -1,029 Descending FlightAware ADS-B
Mon 09:53:46 AM 32.0210 34.9580 339° North 153 176 1,400 -800 Descending FlightAware ADS-B
Mon 09:54:01 AM 32.0260 34.9480 301° West 153 176 1,200 -286 Descending FlightAware ADS-B
Mon 09:54:28 AM 32.0390 34.9370 324° Northwest 153 176 1,200  Level FlightAware ADS-B
Mon 09:57:00 AM 32.0095 34.8769 240° Southwest  Level Estimated

Login

Don't have an account? Register now (free) for customized features, flight alerts, and more!